Observation data for Odell on 01/12/2018      Previous  Date  Next       Current Mesonet Observations  Soil Data  Daily Summary Page  Observations in Plain Language
KOD1 120600Z 01010KT M04/M12 A3033 RMK A01 T10371116  RH  054%=      5-min Rain = 0
KOD1 120601Z 00009KT M04/M12 A3033 RMK A01 T10371116  RH  054%=      5-min Rain = 0
KOD1 120602Z 00009KT M04/M12 A3032 RMK A01 T10371116  RH  054%=      5-min Rain = 0
KOD1 120603Z 01009KT M04/M12 A3032 RMK A01 T10381116  RH  055%=      5-min Rain = 0
KOD1 120604Z 01008KT M04/M12 A3032 RMK A01 T10391116  RH  055%=      5-min Rain = 0
KOD1 120605Z 01008KT M04/M12 A3032 RMK A01 T10401116  RH  055%=      5-min Rain = 0
KOD1 120606Z 01008KT M04/M12 A3032 RMK A01 T10411117  RH  055%=      5-min Rain = 0
KOD1 120607Z 01008KT M04/M12 A3032 RMK A01 T10421117  RH  056%=      5-min Rain = 0
KOD1 120608Z 01008KT M04/M12 A3032 RMK A01 T10431117  RH  056%=      5-min Rain = 0
KOD1 120609Z 00007KT M04/M12 A3032 RMK A01 T10431117  RH  057%=      5-min Rain = 0
KOD1 120610Z 00006KT M04/M12 A3033 RMK A01 T10441117  RH  057%=      5-min Rain = 0
KOD1 120611Z 00006KT M04/M12 A3033 RMK A01 T10441117  RH  057%=      5-min Rain = 0
KOD1 120612Z 00006KT M04/M12 A3033 RMK A01 T10441117  RH  057%=      5-min Rain = 0
KOD1 120613Z 01005KT M05/M12 A3032 RMK A01 T10451117  RH  057%=      5-min Rain = 0
KOD1 120614Z 01006KT M05/M12 A3033 RMK A01 T10461118  RH  057%=      5-min Rain = 0
KOD1 120615Z 01005KT M05/M12 A3033 RMK A01 T10471118  RH  057%=      5-min Rain = 0
KOD1 120616Z 01005KT M05/M12 A3033 RMK A01 T10471119  RH  057%=      5-min Rain = 0
KOD1 120617Z 01004KT M05/M12 A3033 RMK A01 T10481119  RH  058%=      5-min Rain = 0
KOD1 120618Z 00004KT M05/M12 A3033 RMK A01 T10491119  RH  058%=      5-min Rain = 0
KOD1 120619Z 36004KT M05/M12 A3033 RMK A01 T10491118  RH  058%=      5-min Rain = 0
KOD1 120620Z 36003KT M05/M12 A3033 RMK A01 T10491119  RH  058%=      5-min Rain = 0
KOD1 120621Z 36003KT M05/M12 A3033 RMK A01 T10491119  RH  058%=      5-min Rain = 0
KOD1 120622Z 36003KT M05/M12 A3033 RMK A01 T10501120  RH  058%=      5-min Rain = 0
KOD1 120623Z 35003KT M05/M12 A3033 RMK A01 T10501119  RH  058%=      5-min Rain = 0
KOD1 120624Z 00002KT M05/M12 A3033 RMK A01 T10511120  RH  058%=      5-min Rain = 0
KOD1 120625Z 00002KT M05/M12 A3033 RMK A01 T10511120  RH  059%=      5-min Rain = 0
KOD1 120626Z 00002KT M05/M12 A3033 RMK A01 T10521120  RH  059%=      5-min Rain = 0
KOD1 120627Z 35002KT M05/M12 A3033 RMK A01 T10521120  RH  059%=      5-min Rain = 0
KOD1 120628Z 34002KT M05/M12 A3033 RMK A01 T10521120  RH  059%=      5-min Rain = 0
KOD1 120629Z 35002KT M05/M12 A3033 RMK A01 T10531120  RH  059%=      5-min Rain = 0
KOD1 120630Z 34002KT M05/M12 A3033 RMK A01 T10531120  RH  060%=      5-min Rain = 0
KOD1 120631Z 35004KT M05/M12 A3033 RMK A01 T10531119  RH  060%=      5-min Rain = 0
KOD1 120632Z 34004KT M05/M12 A3033 RMK A01 T10531119  RH  060%=      5-min Rain = 0
KOD1 120633Z 34004KT M05/M12 A3033 RMK A01 T10531119  RH  060%=      5-min Rain = 0
KOD1 120634Z 35005KT M05/M12 A3033 RMK A01 T10521118  RH  060%=      5-min Rain = 0
KOD1 120635Z 36005KT M05/M12 A3033 RMK A01 T10521119  RH  059%=      5-min Rain = 0
KOD1 120636Z 36006KT M05/M12 A3032 RMK A01 T10521120  RH  059%=      5-min Rain = 0
KOD1 120637Z 00007KT M05/M12 A3032 RMK A01 T10531120  RH  059%=      5-min Rain = 0
KOD1 120638Z 00007KT M05/M12 A3032 RMK A01 T10541121  RH  059%=      5-min Rain = 0
KOD1 120639Z 00007KT M06/M12 A3032 RMK A01 T10551121  RH  060%=      5-min Rain = 0
KOD1 120640Z 00008KT M06/M12 A3032 RMK A01 T10571122  RH  060%=      5-min Rain = 0
KOD1 120641Z 00008KT M06/M12 A3032 RMK A01 T10581122  RH  061%=      5-min Rain = 0
KOD1 120642Z 01008KT M06/M12 A3032 RMK A01 T10591122  RH  061%=      5-min Rain = 0
KOD1 120643Z 00008KT M06/M12 A3032 RMK A01 T10601122  RH  062%=      5-min Rain = 0
KOD1 120644Z 01008KT M06/M12 A3032 RMK A01 T10611122  RH  062%=      5-min Rain = 0
KOD1 120645Z 01008KT M06/M12 A3032 RMK A01 T10611122  RH  062%=      5-min Rain = 0
KOD1 120646Z 01008KT M06/M12 A3032 RMK A01 T10621121  RH  063%=      5-min Rain = 0
KOD1 120647Z 01007KT M06/M12 A3032 RMK A01 T10621121  RH  063%=      5-min Rain = 0
KOD1 120648Z 01007KT M06/M12 A3032 RMK A01 T10621121  RH  063%=      5-min Rain = 0
KOD1 120649Z 01006KT M06/M12 A3032 RMK A01 T10611120  RH  063%=      5-min Rain = 0
KOD1 120650Z 01006KT M06/M12 A3032 RMK A01 T10611120  RH  063%=      5-min Rain = 0
KOD1 120651Z 01006KT M06/M12 A3032 RMK A01 T10601120  RH  063%=      5-min Rain = 0
KOD1 120652Z 01005KT M06/M12 A3032 RMK A01 T10601120  RH  063%=      5-min Rain = 0
KOD1 120653Z 01005KT M06/M12 A3032 RMK A01 T10601120  RH  062%=      5-min Rain = 0
KOD1 120654Z 01004KT M06/M12 A3032 RMK A01 T10601121  RH  062%=      5-min Rain = 0
KOD1 120655Z 01004KT M06/M12 A3032 RMK A01 T10601121  RH  062%=      5-min Rain = 0
KOD1 120656Z 36003KT M06/M12 A3032 RMK A01 T10611121  RH  062%=      5-min Rain = 0
KOD1 120657Z 35003KT M06/M12 A3032 RMK A01 T10611121  RH  063%=      5-min Rain = 0
KOD1 120658Z 34003KT M06/M12 A3032 RMK A01 T10611120  RH  063%=      5-min Rain = 0
KOD1 120659Z 33004KT M06/M12 A3032 RMK A01 T10611120  RH  063%=      5-min Rain = 0
KOD1 120700Z 33004KT M06/M12 A3032 RMK A01 T10611119  RH  063%=      5-min Rain = 0
KOD1 120701Z 33004KT M06/M12 A3032 RMK A01 T10611119  RH  063%=      5-min Rain = 0
KOD1 120702Z 33004KT M06/M12 A3032 RMK A01 T10611120  RH  063%=      5-min Rain = 0
KOD1 120703Z 33004KT M06/M12 A3033 RMK A01 T10611120  RH  063%=      5-min Rain = 0
KOD1 120704Z 32004KT M06/M12 A3033 RMK A01 T10611121  RH  063%=      5-min Rain = 0
KOD1 120705Z 33004KT M06/M12 A3033 RMK A01 T10631122  RH  063%=      5-min Rain = 0
KOD1 120706Z 33005KT M06/M12 A3032 RMK A01 T10641122  RH  063%=      5-min Rain = 0
KOD1 120707Z 33005KT M07/M12 A3032 RMK A01 T10651124  RH  063%=      5-min Rain = 0
KOD1 120708Z 32005KT M07/M13 A3032 RMK A01 T10671126  RH  063%=      5-min Rain = 0
KOD1 120709Z 32005KT M07/M13 A3033 RMK A01 T10691127  RH  063%=      5-min Rain = 0
KOD1 120710Z 32005KT M07/M13 A3033 RMK A01 T10721129  RH  064%=      5-min Rain = 0
KOD1 120711Z 32005KT M07/M13 A3033 RMK A01 T10731128  RH  065%=      5-min Rain = 0
KOD1 120712Z 32006KT M08/M13 A3033 RMK A01 T10751128  RH  066%=      5-min Rain = 0
KOD1 120713Z 32005KT M08/M13 A3033 RMK A01 T10751128  RH  066%=      5-min Rain = 0
KOD1 120714Z 32005KT M08/M13 A3033 RMK A01 T10751127  RH  067%=      5-min Rain = 0
KOD1 120715Z 32005KT M08/M13 A3033 RMK A01 T10751126  RH  067%=      5-min Rain = 0
KOD1 120716Z 32005KT M08/M13 A3033 RMK A01 T10751126  RH  067%=      5-min Rain = 0
KOD1 120717Z 32005KT M07/M13 A3033 RMK A01 T10741126  RH  067%=      5-min Rain = 0
KOD1 120718Z 32005KT M07/M13 A3033 RMK A01 T10741125  RH  067%=      5-min Rain = 0
KOD1 120719Z 32005KT M07/M13 A3033 RMK A01 T10741126  RH  067%=      5-min Rain = 0
KOD1 120720Z 32005KT M07/M13 A3033 RMK A01 T10741126  RH  066%=      5-min Rain = 0
KOD1 120721Z 32005KT M07/M13 A3033 RMK A01 T10741126  RH  066%=      5-min Rain = 0
KOD1 120722Z 32005KT M07/M13 A3033 RMK A01 T10741126  RH  067%=      5-min Rain = 0
KOD1 120723Z 32005KT M07/M13 A3033 RMK A01 T10741126  RH  067%=      5-min Rain = 0
KOD1 120724Z 33005KT M07/M13 A3033 RMK A01 T10741126  RH  067%=      5-min Rain = 0
KOD1 120725Z 33006KT M07/M13 A3033 RMK A01 T10741126  RH  066%=      5-min Rain = 0
KOD1 120726Z 33007KT M07/M13 A3033 RMK A01 T10741126  RH  066%=      5-min Rain = 0
KOD1 120727Z 33007KT M07/M13 A3033 RMK A01 T10741125  RH  067%=      5-min Rain = 0
KOD1 120728Z 33006KT M07/M12 A3033 RMK A01 T10731123  RH  067%=      5-min Rain = 0
KOD1 120729Z 33007KT M07/M12 A3033 RMK A01 T10721122  RH  067%=      5-min Rain = 0
KOD1 120730Z 33007KT M07/M12 A3033 RMK A01 T10711122  RH  067%=      5-min Rain = 0
KOD1 120731Z 33006KT M07/M12 A3033 RMK A01 T10701121  RH  067%=      5-min Rain = 0
KOD1 120732Z 33006KT M07/M12 A3033 RMK A01 T10681120  RH  067%=      5-min Rain = 0
KOD1 120733Z 33006KT M07/M12 A3033 RMK A01 T10671120  RH  066%=      5-min Rain = 0
KOD1 120734Z 33006KT M07/M12 A3033 RMK A01 T10661120  RH  066%=      5-min Rain = 0
KOD1 120735Z 33006KT M07/M12 A3033 RMK A01 T10651120  RH  065%=      5-min Rain = 0
KOD1 120736Z 33006KT M07/M12 A3033 RMK A01 T10651120  RH  065%=      5-min Rain = 0
KOD1 120737Z 32006KT M07/M12 A3033 RMK A01 T10651120  RH  065%=      5-min Rain = 0
KOD1 120738Z 32006KT M06/M12 A3033 RMK A01 T10641119  RH  065%=      5-min Rain = 0
KOD1 120739Z 32006KT M06/M12 A3033 RMK A01 T10631120  RH  064%=      5-min Rain = 0
KOD1 120740Z 33006KT M06/M12 A3033 RMK A01 T10631120  RH  064%=      5-min Rain = 0
KOD1 120741Z 32006KT M06/M12 A3033 RMK A01 T10631120  RH  064%=      5-min Rain = 0
KOD1 120742Z 32005KT M06/M12 A3034 RMK A01 T10631120  RH  064%=      5-min Rain = 0
KOD1 120743Z 32005KT M06/M12 A3034 RMK A01 T10641120  RH  064%=      5-min Rain = 0
KOD1 120744Z 33005KT M06/M12 A3034 RMK A01 T10641120  RH  064%=      5-min Rain = 0
KOD1 120745Z 33005KT M06/M12 A3034 RMK A01 T10641120  RH  064%=      5-min Rain = 0
KOD1 120746Z 33006KT M06/M12 A3034 RMK A01 T10641121  RH  064%=      5-min Rain = 0
KOD1 120747Z 33005KT M06/M12 A3034 RMK A01 T10641121  RH  064%=      5-min Rain = 0
KOD1 120748Z 33004KT M06/M12 A3034 RMK A01 T10641121  RH  064%=      5-min Rain = 0
KOD1 120749Z 33005KT M06/M12 A3034 RMK A01 T10641121  RH  064%=      5-min Rain = 0
KOD1 120750Z 33005KT M06/M12 A3034 RMK A01 T10641121  RH  064%=      5-min Rain = 0
KOD1 120751Z 33006KT M06/M12 A3034 RMK A01 T10641121  RH  064%=      5-min Rain = 0
KOD1 120752Z 34006KT M06/M12 A3034 RMK A01 T10641121  RH  064%=      5-min Rain = 0
KOD1 120753Z 33006KT M06/M12 A3034 RMK A01 T10641121  RH  064%=      5-min Rain = 0
KOD1 120754Z 34006KT M06/M12 A3034 RMK A01 T10631121  RH  064%=      5-min Rain = 0
KOD1 120755Z 34007KT M06/M12 A3034 RMK A01 T10631120  RH  064%=      5-min Rain = 0
KOD1 120756Z 34006KT M06/M12 A3034 RMK A01 T10621120  RH  063%=      5-min Rain = 0
KOD1 120757Z 34006KT M06/M12 A3034 RMK A01 T10611121  RH  063%=      5-min Rain = 0
KOD1 120758Z 34005KT M06/M12 A3034 RMK A01 T10611121  RH  063%=      5-min Rain = 0
KOD1 120759Z 35007KT M06/M12 A3034 RMK A01 T10611121  RH  063%=      5-min Rain = 0
KOD1 120800Z 35007KT M06/M12 A3034 RMK A01 T10601121  RH  062%=      5-min Rain = 0
KOD1 120801Z 36008KT M06/M12 A3034 RMK A01 T10591121  RH  062%=      5-min Rain = 0
KOD1 120802Z 36008KT M06/M12 A3033 RMK A01 T10591122  RH  061%=      5-min Rain = 0
KOD1 120803Z 00008KT M06/M12 A3033 RMK A01 T10581122  RH  061%=      5-min Rain = 0
KOD1 120804Z 00008KT M06/M12 A3033 RMK A01 T10581122  RH  061%=      5-min Rain = 0
KOD1 120805Z 01008KT M06/M12 A3033 RMK A01 T10581122  RH  061%=      5-min Rain = 0
KOD1 120806Z 01009KT M06/M12 A3033 RMK A01 T10591122  RH  061%=      5-min Rain = 0
KOD1 120807Z 01009KT M06/M12 A3033 RMK A01 T10591122  RH  061%=      5-min Rain = 0
KOD1 120808Z 01009KT M06/M12 A3033 RMK A01 T10601122  RH  061%=      5-min Rain = 0
KOD1 120809Z 02009KT M06/M12 A3032 RMK A01 T10601122  RH  061%=      5-min Rain = 0
KOD1 120810Z 01009KT M06/M12 A3032 RMK A01 T10601122  RH  061%=      5-min Rain = 0
KOD1 120811Z 01009KT M06/M12 A3032 RMK A01 T10601122  RH  062%=      5-min Rain = 0
KOD1 120812Z 01008KT M06/M12 A3032 RMK A01 T10611123  RH  062%=      5-min Rain = 0
KOD1 120813Z 01009KT M06/M12 A3032 RMK A01 T10621123  RH  062%=      5-min Rain = 0
KOD1 120814Z 01008KT M06/M12 A3032 RMK A01 T10621123  RH  062%=      5-min Rain = 0
KOD1 120815Z 01008KT M06/M12 A3033 RMK A01 T10631123  RH  062%=      5-min Rain = 0
KOD1 120816Z 01008KT M06/M12 A3033 RMK A01 T10631123  RH  063%=      5-min Rain = 0
KOD1 120817Z 01008KT M06/M12 A3033 RMK A01 T10641123  RH  063%=      5-min Rain = 0
KOD1 120818Z 01008KT M06/M12 A3033 RMK A01 T10641123  RH  063%=      5-min Rain = 0
KOD1 120819Z 01008KT M06/M12 A3033 RMK A01 T10641123  RH  063%=      5-min Rain = 0
KOD1 120820Z 00008KT M07/M12 A3033 RMK A01 T10651124  RH  063%=      5-min Rain = 0
KOD1 120821Z 00009KT M07/M12 A3032 RMK A01 T10661124  RH  063%=      5-min Rain = 0
KOD1 120822Z 00008KT M07/M12 A3032 RMK A01 T10671124  RH  064%=      5-min Rain = 0
KOD1 120823Z 35009KT M07/M12 A3032 RMK A01 T10671123  RH  064%=      5-min Rain = 0
KOD1 120824Z 35008KT M07/M12 A3032 RMK A01 T10671122  RH  065%=      5-min Rain = 0
KOD1 120825Z 35008KT M07/M12 A3032 RMK A01 T10661121  RH  065%=      5-min Rain = 0
KOD1 120826Z 35007KT M07/M12 A3032 RMK A01 T10651121  RH  064%=      5-min Rain = 0
KOD1 120827Z 36009KT M06/M12 A3032 RMK A01 T10641121  RH  064%=      5-min Rain = 0
KOD1 120828Z 35009KT M06/M12 A3032 RMK A01 T10631122  RH  063%=      5-min Rain = 0
KOD1 120829Z 35008KT M06/M12 A3033 RMK A01 T10621122  RH  063%=      5-min Rain = 0
KOD1 120830Z 34007KT M06/M12 A3033 RMK A01 T10621122  RH  063%=      5-min Rain = 0
KOD1 120831Z 34007KT M06/M12 A3033 RMK A01 T10621122  RH  062%=      5-min Rain = 0
KOD1 120832Z 34007KT M06/M12 A3033 RMK A01 T10631123  RH  062%=      5-min Rain = 0
KOD1 120833Z 34007KT M06/M12 A3033 RMK A01 T10631123  RH  063%=      5-min Rain = 0
KOD1 120834Z 34006KT M06/M12 A3033 RMK A01 T10641123  RH  063%=      5-min Rain = 0
KOD1 120835Z 34006KT M06/M12 A3033 RMK A01 T10641123  RH  063%=      5-min Rain = 0
KOD1 120836Z 34007KT M06/M12 A3033 RMK A01 T10641123  RH  063%=      5-min Rain = 0
KOD1 120837Z 34006KT M06/M12 A3033 RMK A01 T10641123  RH  063%=      5-min Rain = 0
KOD1 120838Z 34006KT M06/M12 A3033 RMK A01 T10641124  RH  063%=      5-min Rain = 0
KOD1 120839Z 34007KT M06/M12 A3033 RMK A01 T10641124  RH  063%=      5-min Rain = 0
KOD1 120840Z 34006KT M06/M12 A3033 RMK A01 T10641124  RH  063%=      5-min Rain = 0
KOD1 120841Z 35007KT M07/M12 A3033 RMK A01 T10651124  RH  063%=      5-min Rain = 0
KOD1 120842Z 35007KT M07/M13 A3033 RMK A01 T10651125  RH  062%=      5-min Rain = 0
KOD1 120843Z 36007KT M07/M13 A3033 RMK A01 T10651125  RH  062%=      5-min Rain = 0
KOD1 120844Z 36008KT M07/M13 A3033 RMK A01 T10651126  RH  062%=      5-min Rain = 0
KOD1 120845Z 36008KT M07/M13 A3033 RMK A01 T10661126  RH  062%=      5-min Rain = 0
KOD1 120846Z 00008KT M07/M13 A3033 RMK A01 T10661126  RH  062%=      5-min Rain = 0
KOD1 120847Z 00008KT M07/M13 A3033 RMK A01 T10651126  RH  062%=      5-min Rain = 0
KOD1 120848Z 00008KT M07/M13 A3033 RMK A01 T10651126  RH  062%=      5-min Rain = 0
KOD1 120849Z 01008KT M07/M13 A3033 RMK A01 T10651126  RH  062%=      5-min Rain = 0
KOD1 120850Z 01008KT M07/M13 A3033 RMK A01 T10651126  RH  062%=      5-min Rain = 0
KOD1 120851Z 00008KT M07/M13 A3033 RMK A01 T10651127  RH  062%=      5-min Rain = 0
KOD1 120852Z 36008KT M07/M13 A3033 RMK A01 T10651127  RH  062%=      5-min Rain = 0
KOD1 120853Z 36007KT M07/M13 A3033 RMK A01 T10651127  RH  061%=      5-min Rain = 0
KOD1 120854Z 36007KT M06/M13 A3033 RMK A01 T10641127  RH  061%=      5-min Rain = 0
KOD1 120855Z 35007KT M06/M13 A3033 RMK A01 T10641127  RH  061%=      5-min Rain = 0
KOD1 120856Z 35008KT M06/M13 A3033 RMK A01 T10641127  RH  061%=      5-min Rain = 0
KOD1 120857Z 35008KT M07/M13 A3033 RMK A01 T10651128  RH  061%=      5-min Rain = 0
KOD1 120858Z 36008KT M07/M13 A3033 RMK A01 T10651128  RH  061%=      5-min Rain = 0
KOD1 120859Z 35007KT M07/M13 A3033 RMK A01 T10651128  RH  061%=      5-min Rain = 0
KOD1 120900Z 35008KT M07/M13 A3033 RMK A01 T10651128  RH  061%=      5-min Rain = 0
KOD1 120901Z 35008KT M07/M13 A3033 RMK A01 T10651128  RH  061%=      5-min Rain = 0
KOD1 120902Z 35008KT M07/M13 A3033 RMK A01 T10661128  RH  061%=      5-min Rain = 0
KOD1 120903Z 35008KT M07/M13 A3033 RMK A01 T10661129  RH  061%=      5-min Rain = 0
KOD1 120904Z 35007KT M07/M13 A3033 RMK A01 T10671129  RH  061%=      5-min Rain = 0
KOD1 120905Z 35008KT M07/M13 A3033 RMK A01 T10671129  RH  061%=      5-min Rain = 0
KOD1 120906Z 34007KT M07/M13 A3033 RMK A01 T10671129  RH  061%=      5-min Rain = 0
KOD1 120907Z 34007KT M07/M13 A3033 RMK A01 T10671130  RH  061%=      5-min Rain = 0
KOD1 120908Z 34006KT M07/M13 A3033 RMK A01 T10681130  RH  061%=      5-min Rain = 0
KOD1 120909Z 34006KT M07/M13 A3033 RMK A01 T10681130  RH  061%=      5-min Rain = 0
KOD1 120910Z 34006KT M07/M13 A3033 RMK A01 T10681130  RH  061%=      5-min Rain = 0
KOD1 120911Z 34006KT M07/M13 A3033 RMK A01 T10681131  RH  061%=      5-min Rain = 0
KOD1 120912Z 34007KT M07/M13 A3033 RMK A01 T10691131  RH  061%=      5-min Rain = 0
KOD1 120913Z 34007KT M07/M13 A3033 RMK A01 T10691132  RH  061%=      5-min Rain = 0
KOD1 120914Z 34008KT M07/M13 A3033 RMK A01 T10691132  RH  061%=      5-min Rain = 0
KOD1 120915Z 33007KT M07/M13 A3033 RMK A01 T10691132  RH  061%=      5-min Rain = 0
KOD1 120916Z 33007KT M07/M13 A3033 RMK A01 T10691133  RH  061%=      5-min Rain = 0
KOD1 120917Z 33007KT M07/M13 A3033 RMK A01 T10701133  RH  061%=      5-min Rain = 0
KOD1 120918Z 34008KT M07/M13 A3032 RMK A01 T10701133  RH  061%=      5-min Rain = 0
KOD1 120919Z 34008KT M07/M13 A3032 RMK A01 T10701133  RH  061%=      5-min Rain = 0
KOD1 120920Z 34008KT M07/M13 A3032 RMK A01 T10701133  RH  061%=      5-min Rain = 0
KOD1 120921Z 34007KT M07/M13 A3032 RMK A01 T10701133  RH  060%=      5-min Rain = 0
KOD1 120922Z 34007KT M07/M13 A3032 RMK A01 T10701133  RH  060%=      5-min Rain = 0
KOD1 120923Z 34006KT M07/M13 A3032 RMK A01 T10691133  RH  060%=      5-min Rain = 0
KOD1 120924Z 34007KT M07/M13 A3032 RMK A01 T10691133  RH  060%=      5-min Rain = 0
KOD1 120925Z 33006KT M07/M13 A3032 RMK A01 T10691134  RH  060%=      5-min Rain = 0
KOD1 120926Z 33007KT M07/M13 A3032 RMK A01 T10701134  RH  060%=      5-min Rain = 0
KOD1 120927Z 33006KT M07/M14 A3032 RMK A01 T10711135  RH  060%=      5-min Rain = 0
KOD1 120928Z 32006KT M07/M14 A3032 RMK A01 T10711135  RH  061%=      5-min Rain = 0
KOD1 120929Z 32006KT M07/M14 A3032 RMK A01 T10721135  RH  061%=      5-min Rain = 0
KOD1 120930Z 33005KT M07/M14 A3031 RMK A01 T10731135  RH  061%=      5-min Rain = 0
KOD1 120931Z 33005KT M07/M14 A3031 RMK A01 T10741135  RH  062%=      5-min Rain = 0
KOD1 120932Z 33005KT M08/M14 A3031 RMK A01 T10751136  RH  062%=      5-min Rain = 0
KOD1 120933Z 33005KT M08/M14 A3031 RMK A01 T10761136  RH  062%=      5-min Rain = 0
KOD1 120934Z 33006KT M08/M14 A3031 RMK A01 T10771136  RH  062%=      5-min Rain = 0
KOD1 120935Z 34006KT M08/M14 A3031 RMK A01 T10771136  RH  063%=      5-min Rain = 0
KOD1 120936Z 34007KT M08/M14 A3031 RMK A01 T10781136  RH  063%=      5-min Rain = 0
KOD1 120937Z 34006KT M08/M14 A3031 RMK A01 T10781135  RH  064%=      5-min Rain = 0
KOD1 120938Z 34006KT M08/M14 A303 RMK A01 T10791135  RH  064%=      5-min Rain = 0
KOD1 120939Z 34006KT M08/M14 A303 RMK A01 T10791135  RH  064%=      5-min Rain = 0
KOD1 120940Z 34006KT M08/M13 A303 RMK A01 T10791134  RH  064%=      5-min Rain = 0
KOD1 120941Z 33006KT M08/M13 A303 RMK A01 T10781134  RH  064%=      5-min Rain = 0
KOD1 120942Z 33006KT M08/M14 A3031 RMK A01 T10791135  RH  064%=      5-min Rain = 0
KOD1 120943Z 33006KT M08/M14 A3031 RMK A01 T10791135  RH  064%=      5-min Rain = 0
KOD1 120944Z 33006KT M08/M14 A3031 RMK A01 T10791135  RH  064%=      5-min Rain = 0
KOD1 120945Z 33005KT M08/M14 A3031 RMK A01 T10801135  RH  064%=      5-min Rain = 0
KOD1 120946Z 32006KT M08/M13 A3031 RMK A01 T10801134  RH  065%=      5-min Rain = 0
KOD1 120947Z 32005KT M08/M13 A3031 RMK A01 T10801134  RH  065%=      5-min Rain = 0
KOD1 120948Z 32005KT M08/M13 A3031 RMK A01 T10801134  RH  065%=      5-min Rain = 0
KOD1 120949Z 32005KT M08/M13 A3031 RMK A01 T10791134  RH  065%=      5-min Rain = 0
KOD1 120950Z 32005KT M08/M13 A3031 RMK A01 T10801134  RH  065%=      5-min Rain = 0
KOD1 120951Z 31005KT M08/M14 A3031 RMK A01 T10801135  RH  065%=      5-min Rain = 0
KOD1 120952Z 31005KT M08/M14 A3031 RMK A01 T10811135  RH  065%=      5-min Rain = 0
KOD1 120953Z 31005KT M08/M14 A3031 RMK A01 T10821136  RH  065%=      5-min Rain = 0
KOD1 120954Z 31005KT M08/M14 A3031 RMK A01 T10831137  RH  065%=      5-min Rain = 0
KOD1 120955Z 31005KT M09/M14 A3031 RMK A01 T10851137  RH  066%=      5-min Rain = 0
KOD1 120956Z 31005KT M09/M14 A3031 RMK A01 T10861138  RH  066%=      5-min Rain = 0
KOD1 120957Z 31006KT M09/M14 A3031 RMK A01 T10881138  RH  067%=      5-min Rain = 0
KOD1 120958Z 31006KT M09/M14 A3031 RMK A01 T10891138  RH  068%=      5-min Rain = 0
KOD1 120959Z 31006KT M09/M14 A3031 RMK A01 T10901138  RH  068%=      5-min Rain = 0
KOD1 121000Z 31006KT M09/M14 A3031 RMK A01 T10911138  RH  069%=      5-min Rain = 0
KOD1 121001Z 31006KT M09/M14 A3031 RMK A01 T10911137  RH  069%=      5-min Rain = 0
KOD1 121002Z 31006KT M09/M14 A3031 RMK A01 T10911137  RH  070%=      5-min Rain = 0
KOD1 121003Z 32005KT M09/M14 A3031 RMK A01 T10911136  RH  070%=      5-min Rain = 0
KOD1 121004Z 32005KT M09/M14 A3031 RMK A01 T10921137  RH  070%=      5-min Rain = 0
KOD1 121005Z 33005KT M09/M14 A3031 RMK A01 T10921136  RH  070%=      5-min Rain = 0
KOD1 121006Z 34005KT M09/M14 A3031 RMK A01 T10911135  RH  071%=      5-min Rain = 0
KOD1 121007Z 35005KT M09/M13 A3031 RMK A01 T10911134  RH  071%=      5-min Rain = 0
KOD1 121008Z 35005KT M09/M13 A3031 RMK A01 T10901133  RH  071%=      5-min Rain = 0
KOD1 121009Z 35005KT M09/M13 A3031 RMK A01 T10891133  RH  070%=      5-min Rain = 0
KOD1 121010Z 35005KT M09/M13 A3031 RMK A01 T10891133  RH  070%=      5-min Rain = 0
KOD1 121011Z 35005KT M09/M13 A3031 RMK A01 T10881133  RH  070%=      5-min Rain = 0
KOD1 121012Z 35004KT M09/M13 A3031 RMK A01 T10881133  RH  070%=      5-min Rain = 0
KOD1 121013Z 35005KT M09/M13 A3031 RMK A01 T10881134  RH  070%=      5-min Rain = 0
KOD1 121014Z 35004KT M09/M13 A3031 RMK A01 T10891134  RH  070%=      5-min Rain = 0
KOD1 121015Z 34004KT M09/M13 A3031 RMK A01 T10891134  RH  070%=      5-min Rain = 0
KOD1 121016Z 34005KT M09/M13 A3031 RMK A01 T10891133  RH  070%=      5-min Rain = 0
KOD1 121017Z 34005KT M09/M13 A3031 RMK A01 T10881133  RH  070%=      5-min Rain = 0
KOD1 121018Z 34005KT M09/M13 A3031 RMK A01 T10881133  RH  070%=      5-min Rain = 0
KOD1 121019Z 34005KT M09/M13 A3031 RMK A01 T10881132  RH  070%=      5-min Rain = 0
KOD1 121020Z 34005KT M09/M13 A3031 RMK A01 T10881132  RH  070%=      5-min Rain = 0
KOD1 121021Z 34005KT M09/M13 A3031 RMK A01 T10881133  RH  070%=      5-min Rain = 0
KOD1 121022Z 34005KT M09/M13 A3031 RMK A01 T10881133  RH  070%=      5-min Rain = 0
KOD1 121023Z 35005KT M09/M13 A3031 RMK A01 T10881133  RH  070%=      5-min Rain = 0
KOD1 121024Z 34005KT M09/M13 A3031 RMK A01 T10881133  RH  070%=      5-min Rain = 0
KOD1 121025Z 34004KT M09/M13 A3031 RMK A01 T10891133  RH  070%=      5-min Rain = 0
KOD1 121026Z 34004KT M09/M13 A3031 RMK A01 T10891134  RH  070%=      5-min Rain = 0
KOD1 121027Z 34003KT M09/M13 A3031 RMK A01 T10891134  RH  070%=      5-min Rain = 0
KOD1 121028Z 33003KT M09/M13 A3031 RMK A01 T10901134  RH  070%=      5-min Rain = 0
KOD1 121029Z 33003KT M09/M13 A3031 RMK A01 T10901134  RH  070%=      5-min Rain = 0
KOD1 121030Z 33004KT M09/M13 A3031 RMK A01 T10901134  RH  071%=      5-min Rain = 0
KOD1 121031Z 33004KT M09/M13 A3031 RMK A01 T10901133  RH  071%=      5-min Rain = 0
KOD1 121032Z 33005KT M09/M13 A3031 RMK A01 T10901133  RH  071%=      5-min Rain = 0
KOD1 121033Z 34006KT M09/M13 A3031 RMK A01 T10891133  RH  071%=      5-min Rain = 0
KOD1 121034Z 34006KT M09/M13 A3031 RMK A01 T10891133  RH  070%=      5-min Rain = 0
KOD1 121035Z 34007KT M09/M13 A3031 RMK A01 T10891133  RH  071%=      5-min Rain = 0
KOD1 121036Z 34007KT M09/M13 A3031 RMK A01 T10881131  RH  071%=      5-min Rain = 0
KOD1 121037Z 34007KT M09/M13 A3031 RMK A01 T10881131  RH  071%=      5-min Rain = 0
KOD1 121038Z 34008KT M09/M13 A3031 RMK A01 T10871132  RH  070%=      5-min Rain = 0
KOD1 121039Z 34007KT M09/M13 A3031 RMK A01 T10871132  RH  070%=      5-min Rain = 0
KOD1 121040Z 34007KT M09/M13 A3031 RMK A01 T10871132  RH  070%=      5-min Rain = 0
KOD1 121041Z 34006KT M09/M13 A3032 RMK A01 T10871132  RH  070%=      5-min Rain = 0
KOD1 121042Z 34005KT M09/M13 A3032 RMK A01 T10871132  RH  070%=      5-min Rain = 0
KOD1 121043Z 34005KT M09/M13 A3032 RMK A01 T10871132  RH  070%=      5-min Rain = 0
KOD1 121044Z 34004KT M09/M13 A3032 RMK A01 T10871132  RH  070%=      5-min Rain = 0
KOD1 121045Z 34003KT M09/M13 A3032 RMK A01 T10871132  RH  070%=      5-min Rain = 0
KOD1 121046Z 33003KT M09/M13 A3032 RMK A01 T10881133  RH  070%=      5-min Rain = 0
KOD1 121047Z 32002KT M09/M13 A3032 RMK A01 T10881133  RH  070%=      5-min Rain = 0
KOD1 121048Z 31002KT M09/M13 A3033 RMK A01 T10881133  RH  070%=      5-min Rain = 0
KOD1 121049Z 31003KT M09/M13 A3033 RMK A01 T10881133  RH  070%=      5-min Rain = 0
KOD1 121050Z 31002KT M09/M13 A3033 RMK A01 T10881132  RH  070%=      5-min Rain = 0
KOD1 121051Z 32003KT M09/M13 A3033 RMK A01 T10871132  RH  070%=      5-min Rain = 0
KOD1 121052Z 33003KT M09/M13 A3033 RMK A01 T10871131  RH  070%=      5-min Rain = 0
KOD1 121053Z 33003KT M09/M13 A3033 RMK A01 T10861131  RH  070%=      5-min Rain = 0
KOD1 121054Z 33003KT M09/M13 A3033 RMK A01 T10861131  RH  070%=      5-min Rain = 0
KOD1 121055Z 33004KT M09/M13 A3033 RMK A01 T10851131  RH  069%=      5-min Rain = 0
KOD1 121056Z 33004KT M09/M13 A3033 RMK A01 T10851132  RH  069%=      5-min Rain = 0
KOD1 121057Z 33004KT M09/M13 A3033 RMK A01 T10851132  RH  069%=      5-min Rain = 0
KOD1 121058Z 33004KT M09/M13 A3033 RMK A01 T10851132  RH  069%=      5-min Rain = 0
KOD1 121059Z 33005KT M09/M13 A3033 RMK A01 T10861132  RH  069%=      5-min Rain = 0
KOD1 121100Z 33005KT M09/M13 A3033 RMK A01 T10861133  RH  069%=      5-min Rain = 0
KOD1 121101Z 33005KT M09/M13 A3033 RMK A01 T10871133  RH  069%=      5-min Rain = 0
KOD1 121102Z 33006KT M09/M13 A3033 RMK A01 T10881134  RH  069%=      5-min Rain = 0
KOD1 121103Z 33005KT M09/M14 A3033 RMK A01 T10891135  RH  069%=      5-min Rain = 0
KOD1 121104Z 33005KT M09/M14 A3033 RMK A01 T10901135  RH  070%=      5-min Rain = 0
KOD1 121105Z 33005KT M09/M14 A3032 RMK A01 T10901135  RH  070%=      5-min Rain = 0
KOD1 121106Z 33005KT M09/M14 A3032 RMK A01 T10911135  RH  070%=      5-min Rain = 0
KOD1 121107Z 33005KT M09/M13 A3032 RMK A01 T10911134  RH  071%=      5-min Rain = 0
KOD1 121108Z 33004KT M09/M13 A3032 RMK A01 T10911134  RH  071%=      5-min Rain = 0
KOD1 121109Z 33004KT M09/M13 A3032 RMK A01 T10911134  RH  071%=      5-min Rain = 0
KOD1 121110Z 33003KT M09/M13 A3033 RMK A01 T10911134  RH  071%=      5-min Rain = 0
KOD1 121111Z 33003KT M09/M13 A3033 RMK A01 T10911134  RH  071%=      5-min Rain = 0
KOD1 121112Z 32003KT M09/M13 A3033 RMK A01 T10911134  RH  071%=      5-min Rain = 0
KOD1 121113Z 31003KT M09/M13 A3033 RMK A01 T10911134  RH  071%=      5-min Rain = 0
KOD1 121114Z 31002KT M09/M13 A3033 RMK A01 T10911134  RH  071%=      5-min Rain = 0
KOD1 121115Z 31002KT M09/M13 A3033 RMK A01 T10911134  RH  071%=      5-min Rain = 0
KOD1 121116Z 32003KT M09/M13 A3032 RMK A01 T10911134  RH  071%=      5-min Rain = 0
KOD1 121117Z 33003KT M09/M13 A3032 RMK A01 T10911134  RH  071%=      5-min Rain = 0
KOD1 121118Z 33003KT M09/M13 A3032 RMK A01 T10911134  RH  071%=      5-min Rain = 0
KOD1 121119Z 33004KT M09/M13 A3032 RMK A01 T10911133  RH  071%=      5-min Rain = 0
KOD1 121120Z 33004KT M09/M13 A3032 RMK A01 T10911133  RH  071%=      5-min Rain = 0
KOD1 121121Z 32004KT M09/M13 A3033 RMK A01 T10901133  RH  071%=      5-min Rain = 0
KOD1 121122Z 32004KT M09/M13 A3032 RMK A01 T10901134  RH  070%=      5-min Rain = 0
KOD1 121123Z 32004KT M09/M14 A3032 RMK A01 T10911135  RH  070%=      5-min Rain = 0
KOD1 121124Z 32005KT M09/M14 A3032 RMK A01 T10921136  RH  070%=      5-min Rain = 0
KOD1 121125Z 32005KT M09/M14 A3032 RMK A01 T10921137  RH  070%=      5-min Rain = 0
KOD1 121126Z 32004KT M09/M14 A3032 RMK A01 T10931137  RH  071%=      5-min Rain = 0
KOD1 121127Z 31004KT M09/M14 A3033 RMK A01 T10941136  RH  071%=      5-min Rain = 0
KOD1 121128Z 31004KT M09/M14 A3033 RMK A01 T10941136  RH  071%=      5-min Rain = 0
KOD1 121129Z 31003KT M09/M14 A3033 RMK A01 T10941136  RH  071%=      5-min Rain = 0
KOD1 121130Z 30002KT M09/M14 A3033 RMK A01 T10941136  RH  071%=      5-min Rain = 0
KOD1 121131Z 30003KT M10/M14 A3032 RMK A01 T10951137  RH  071%=      5-min Rain = 0
KOD1 121132Z 29002KT M10/M14 A3032 RMK A01 T10951137  RH  071%=      5-min Rain = 0
KOD1 121133Z 28002KT M10/M14 A3032 RMK A01 T10951137  RH  072%=      5-min Rain = 0
KOD1 121134Z 27002KT M10/M14 A3033 RMK A01 T10961137  RH  072%=      5-min Rain = 0
KOD1 121135Z 28002KT M10/M14 A3033 RMK A01 T10961138  RH  072%=      5-min Rain = 0
KOD1 121136Z 27001KT M10/M14 A3033 RMK A01 T10971138  RH  072%=      5-min Rain = 0
KOD1 121137Z 25001KT M10/M14 A3033 RMK A01 T10971138  RH  072%=      5-min Rain = 0
KOD1 121138Z 26002KT M10/M14 A3033 RMK A01 T10971137  RH  073%=      5-min Rain = 0
KOD1 121139Z 28002KT M10/M14 A3033 RMK A01 T10971136  RH  073%=      5-min Rain = 0
KOD1 121140Z 29003KT M10/M14 A3033 RMK A01 T10971135  RH  074%=      5-min Rain = 0
KOD1 121141Z 30003KT M10/M14 A3033 RMK A01 T10971135  RH  074%=      5-min Rain = 0
KOD1 121142Z 31003KT M10/M14 A3033 RMK A01 T10971136  RH  073%=      5-min Rain = 0
KOD1 121143Z 32003KT M10/M14 A3033 RMK A01 T10981136  RH  073%=      5-min Rain = 0
KOD1 121144Z 33003KT M10/M14 A3033 RMK A01 T10981136  RH  074%=      5-min Rain = 0
KOD1 121145Z 34004KT M10/M14 A3033 RMK A01 T10981135  RH  074%=      5-min Rain = 0
KOD1 121146Z 35004KT M10/M13 A3032 RMK A01 T10971134  RH  074%=      5-min Rain = 0
KOD1 121147Z 35004KT M10/M13 A3032 RMK A01 T10961134  RH  074%=      5-min Rain = 0
KOD1 121148Z 35004KT M10/M14 A3032 RMK A01 T10961135  RH  073%=      5-min Rain = 0
KOD1 121149Z 35005KT M10/M14 A3032 RMK A01 T10961135  RH  073%=      5-min Rain = 0
KOD1 121150Z 35004KT M10/M14 A3032 RMK A01 T10961136  RH  073%=      5-min Rain = 0
KOD1 121151Z 34004KT M10/M14 A3032 RMK A01 T10961136  RH  073%=      5-min Rain = 0
KOD1 121152Z 34004KT M10/M14 A3032 RMK A01 T10971137  RH  072%=      5-min Rain = 0
KOD1 121153Z 34004KT M10/M14 A3032 RMK A01 T10971137  RH  073%=      5-min Rain = 0
KOD1 121154Z 33004KT M10/M14 A3032 RMK A01 T10971137  RH  073%=      5-min Rain = 0
KOD1 121155Z 33004KT M10/M14 A3033 RMK A01 T10971136  RH  073%=      5-min Rain = 0
KOD1 121156Z 33004KT M10/M14 A3033 RMK A01 T10971136  RH  073%=      5-min Rain = 0
KOD1 121157Z 34004KT M10/M14 A3033 RMK A01 T10971136  RH  073%=      5-min Rain = 0
KOD1 121158Z 34005KT M10/M14 A3033 RMK A01 T10971136  RH  073%=      5-min Rain = 0
KOD1 121159Z 34005KT M10/M14 A3033 RMK A01 T10961135  RH  074%=      5-min Rain = 0
KOD1 121200Z 34005KT M10/M14 A3033 RMK A01 T10951135  RH  073%=      5-min Rain = 0
KOD1 121201Z 34006KT M10/M14 A3033 RMK A01 T10951135  RH  073%=      5-min Rain = 0
KOD1 121202Z 34006KT M09/M13 A3032 RMK A01 T10941134  RH  072%=      5-min Rain = 0
KOD1 121203Z 34006KT M09/M13 A3032 RMK A01 T10931134  RH  072%=      5-min Rain = 0
KOD1 121204Z 34007KT M09/M13 A3032 RMK A01 T10921133  RH  072%=      5-min Rain = 0
KOD1 121205Z 34006KT M09/M13 A3032 RMK A01 T10911133  RH  072%=      5-min Rain = 0
KOD1 121206Z 34006KT M09/M13 A3032 RMK A01 T10901133  RH  071%=      5-min Rain = 0
KOD1 121207Z 34006KT M09/M13 A3032 RMK A01 T10901133  RH  071%=      5-min Rain = 0
KOD1 121208Z 34006KT M09/M13 A3032 RMK A01 T10911134  RH  071%=      5-min Rain = 0
KOD1 121209Z 34006KT M09/M13 A3032 RMK A01 T10911134  RH  071%=      5-min Rain = 0
KOD1 121210Z 34007KT M09/M13 A3032 RMK A01 T10911134  RH  071%=      5-min Rain = 0
KOD1 121211Z 34006KT M09/M13 A3032 RMK A01 T10911134  RH  071%=      5-min Rain = 0
KOD1 121212Z 34005KT M09/M13 A3032 RMK A01 T10921134  RH  071%=      5-min Rain = 0
KOD1 121213Z 34005KT M09/M14 A3032 RMK A01 T10921135  RH  071%=      5-min Rain = 0
KOD1 121214Z 34004KT M09/M14 A3032 RMK A01 T10931135  RH  071%=      5-min Rain = 0
KOD1 121215Z 34003KT M09/M14 A3033 RMK A01 T10931135  RH  072%=      5-min Rain = 0
KOD1 121216Z 32002KT M09/M14 A3033 RMK A01 T10931135  RH  072%=      5-min Rain = 0
KOD1 121217Z 32003KT M09/M14 A3033 RMK A01 T10941135  RH  072%=      5-min Rain = 0
KOD1 121218Z 31004KT M09/M14 A3033 RMK A01 T10941135  RH  072%=      5-min Rain = 0
KOD1 121219Z 31004KT M09/M14 A3033 RMK A01 T10941135  RH  072%=      5-min Rain = 0
KOD1 121220Z 32004KT M09/M14 A3033 RMK A01 T10941135  RH  072%=      5-min Rain = 0
KOD1 121221Z 32005KT M09/M14 A3033 RMK A01 T10941135  RH  072%=      5-min Rain = 0
KOD1 121222Z 33005KT M10/M14 A3033 RMK A01 T10951136  RH  072%=      5-min Rain = 0
KOD1 121223Z 33006KT M10/M14 A3033 RMK A01 T10961136  RH  072%=      5-min Rain = 0
KOD1 121224Z 33006KT M10/M14 A3033 RMK A01 T10971137  RH  073%=      5-min Rain = 0
KOD1 121225Z 33007KT M10/M14 A3033 RMK A01 T10981136  RH  073%=      5-min Rain = 0
KOD1 121226Z 33007KT M10/M14 A3033 RMK A01 T10981136  RH  074%=      5-min Rain = 0
KOD1 121227Z 33007KT M10/M14 A3033 RMK A01 T10981135  RH  074%=      5-min Rain = 0
KOD1 121228Z 33007KT M10/M14 A3033 RMK A01 T10981135  RH  075%=      5-min Rain = 0
KOD1 121229Z 33006KT M10/M14 A3034 RMK A01 T10991135  RH  075%=      5-min Rain = 0
KOD1 121230Z 32005KT M10/M14 A3034 RMK A01 T10991135  RH  075%=      5-min Rain = 0
KOD1 121231Z 32005KT M10/M14 A3034 RMK A01 T10991135  RH  075%=      5-min Rain = 0
KOD1 121232Z 32004KT M10/M14 A3034 RMK A01 T10991135  RH  075%=      5-min Rain = 0
KOD1 121233Z 32004KT M10/M13 A3034 RMK A01 T10991134  RH  075%=      5-min Rain = 0
KOD1 121234Z 31004KT M10/M13 A3034 RMK A01 T10991134  RH  075%=      5-min Rain = 0
KOD1 121235Z 32004KT M10/M13 A3034 RMK A01 T10981134  RH  075%=      5-min Rain = 0
KOD1 121236Z 32004KT M10/M13 A3034 RMK A01 T10981134  RH  075%=      5-min Rain = 0
KOD1 121237Z 32004KT M10/M13 A3034 RMK A01 T10981134  RH  075%=      5-min Rain = 0
KOD1 121238Z 33004KT M10/M13 A3034 RMK A01 T10981134  RH  075%=      5-min Rain = 0
KOD1 121239Z 32004KT M10/M13 A3034 RMK A01 T10981134  RH  075%=      5-min Rain = 0
KOD1 121240Z 33004KT M10/M14 A3034 RMK A01 T10981135  RH  075%=      5-min Rain = 0
KOD1 121241Z 33004KT M10/M14 A3034 RMK A01 T10991135  RH  075%=      5-min Rain = 0
KOD1 121242Z 33005KT M10/M14 A3034 RMK A01 T10991135  RH  075%=      5-min Rain = 0
KOD1 121243Z 32005KT M10/M14 A3034 RMK A01 T10991136  RH  075%=      5-min Rain = 0
KOD1 121244Z 32005KT M10/M14 A3034 RMK A01 T11001136  RH  075%=      5-min Rain = 0
KOD1 121245Z 32005KT M10/M14 A3034 RMK A01 T11001136  RH  075%=      5-min Rain = 0
KOD1 121246Z 32005KT M10/M14 A3034 RMK A01 T11001137  RH  075%=      5-min Rain = 0
KOD1 121247Z 32004KT M10/M14 A3034 RMK A01 T11011137  RH  075%=      5-min Rain = 0
KOD1 121248Z 31005KT M10/M14 A3034 RMK A01 T11011137  RH  075%=      5-min Rain = 0
KOD1 121249Z 29004KT M10/M14 A3034 RMK A01 T11021137  RH  075%=      5-min Rain = 0
KOD1 121250Z 28004KT M10/M14 A3034 RMK A01 T11031138  RH  075%=      5-min Rain = 0
KOD1 121251Z 26003KT M10/M14 A3034 RMK A01 T11041140  RH  075%=      5-min Rain = 0
KOD1 121252Z 27003KT M11/M14 A3034 RMK A01 T11061141  RH  075%=      5-min Rain = 0
KOD1 121253Z 28004KT M11/M14 A3034 RMK A01 T11071141  RH  076%=      5-min Rain = 0
KOD1 121254Z 29003KT M11/M14 A3034 RMK A01 T11081142  RH  076%=      5-min Rain = 0
KOD1 121255Z 29004KT M11/M14 A3034 RMK A01 T11081142  RH  076%=      5-min Rain = 0
KOD1 121256Z 30005KT M11/M14 A3034 RMK A01 T11091142  RH  077%=      5-min Rain = 0
KOD1 121257Z 31005KT M11/M14 A3034 RMK A01 T11101141  RH  078%=      5-min Rain = 0
KOD1 121258Z 31005KT M11/M14 A3034 RMK A01 T11101141  RH  078%=      5-min Rain = 0
KOD1 121259Z 31006KT M11/M14 A3034 RMK A01 T11101140  RH  079%=      5-min Rain = 0
KOD1 121300Z 30006KT M11/M14 A3034 RMK A01 T11101140  RH  079%=      5-min Rain = 0
KOD1 121301Z 30006KT M11/M14 A3034 RMK A01 T11101139  RH  079%=      5-min Rain = 0
KOD1 121302Z 31006KT M11/M14 A3034 RMK A01 T11101138  RH  080%=      5-min Rain = 0
KOD1 121303Z 31006KT M11/M14 A3034 RMK A01 T11091137  RH  080%=      5-min Rain = 0
KOD1 121304Z 31006KT M11/M14 A3034 RMK A01 T11091138  RH  079%=      5-min Rain = 0
KOD1 121305Z 31006KT M11/M14 A3034 RMK A01 T11091138  RH  079%=      5-min Rain = 0
KOD1 121306Z 31006KT M11/M14 A3034 RMK A01 T11091139  RH  079%=      5-min Rain = 0
KOD1 121307Z 31006KT M11/M14 A3034 RMK A01 T11101139  RH  079%=      5-min Rain = 0
KOD1 121308Z 31006KT M11/M14 A3034 RMK A01 T11101139  RH  079%=      5-min Rain = 0
KOD1 121309Z 31007KT M11/M14 A3034 RMK A01 T11101139  RH  079%=      5-min Rain = 0
KOD1 121310Z 31007KT M11/M14 A3034 RMK A01 T11101138  RH  079%=      5-min Rain = 0
KOD1 121311Z 31007KT M11/M14 A3034 RMK A01 T11101138  RH  079%=      5-min Rain = 0
KOD1 121312Z 31007KT M11/M14 A3034 RMK A01 T11091138  RH  079%=      5-min Rain = 0
KOD1 121313Z 32007KT M11/M14 A3035 RMK A01 T11091138  RH  079%=      5-min Rain = 0
KOD1 121314Z 32007KT M11/M14 A3035 RMK A01 T11091138  RH  079%=      5-min Rain = 0
KOD1 121315Z 33007KT M11/M14 A3035 RMK A01 T11081137  RH  079%=      5-min Rain = 0
KOD1 121316Z 33007KT M11/M14 A3035 RMK A01 T11071136  RH  079%=      5-min Rain = 0
KOD1 121317Z 32007KT M11/M14 A3035 RMK A01 T11051135  RH  079%=      5-min Rain = 0
KOD1 121318Z 32006KT M10/M14 A3035 RMK A01 T11041135  RH  078%=      5-min Rain = 0
KOD1 121319Z 32006KT M10/M14 A3035 RMK A01 T11031135  RH  077%=      5-min Rain = 0
KOD1 121320Z 32005KT M10/M14 A3035 RMK A01 T11021135  RH  077%=      5-min Rain = 0
KOD1 121321Z 32005KT M10/M14 A3035 RMK A01 T11011135  RH  076%=      5-min Rain = 0
KOD1 121322Z 32005KT M10/M14 A3035 RMK A01 T11001135  RH  076%=      5-min Rain = 0
KOD1 121323Z 32006KT M10/M14 A3035 RMK A01 T10991135  RH  075%=      5-min Rain = 0
KOD1 121324Z 32006KT M10/M14 A3035 RMK A01 T10991136  RH  074%=      5-min Rain = 0
KOD1 121325Z 32006KT M10/M14 A3035 RMK A01 T11001137  RH  074%=      5-min Rain = 0
KOD1 121326Z 33006KT M10/M14 A3035 RMK A01 T11001138  RH  074%=      5-min Rain = 0
KOD1 121327Z 33006KT M10/M14 A3035 RMK A01 T11011139  RH  074%=      5-min Rain = 0
KOD1 121328Z 33006KT M10/M14 A3035 RMK A01 T11021139  RH  074%=      5-min Rain = 0
KOD1 121329Z 33005KT M10/M14 A3035 RMK A01 T11021139  RH  074%=      5-min Rain = 0
KOD1 121330Z 32005KT M10/M14 A3035 RMK A01 T11021138  RH  074%=      5-min Rain = 0
KOD1 121331Z 32005KT M10/M14 A3035 RMK A01 T11011138  RH  074%=      5-min Rain = 0
KOD1 121332Z 32006KT M10/M14 A3035 RMK A01 T11011138  RH  074%=      5-min Rain = 0
KOD1 121333Z 32006KT M10/M14 A3035 RMK A01 T11011138  RH  074%=      5-min Rain = 0
KOD1 121334Z 33005KT M10/M14 A3035 RMK A01 T11001138  RH  074%=      5-min Rain = 0
KOD1 121335Z 33005KT M10/M14 A3035 RMK A01 T11001138  RH  074%=      5-min Rain = 0
KOD1 121336Z 34006KT M10/M14 A3035 RMK A01 T10991138  RH  073%=      5-min Rain = 0
KOD1 121337Z 34006KT M10/M14 A3035 RMK A01 T10981137  RH  073%=      5-min Rain = 0
KOD1 121338Z 35005KT M10/M14 A3034 RMK A01 T10981137  RH  073%=      5-min Rain = 0
KOD1 121339Z 35005KT M10/M14 A3034 RMK A01 T10971138  RH  072%=      5-min Rain = 0
KOD1 121340Z 34005KT M10/M14 A3034 RMK A01 T10981139  RH  072%=      5-min Rain = 0
KOD1 121341Z 34005KT M10/M14 A3034 RMK A01 T10981139  RH  072%=      5-min Rain = 0
KOD1 121342Z 34005KT M10/M14 A3035 RMK A01 T10991139  RH  072%=      5-min Rain = 0
KOD1 121343Z 34005KT M10/M14 A3035 RMK A01 T10991139  RH  072%=      5-min Rain = 0
KOD1 121344Z 34005KT M10/M14 A3035 RMK A01 T10991139  RH  072%=      5-min Rain = 0
KOD1 121345Z 34005KT M10/M14 A3035 RMK A01 T10991139  RH  072%=      5-min Rain = 0
KOD1 121346Z 34005KT M10/M14 A3035 RMK A01 T10991139  RH  072%=      5-min Rain = 0
KOD1 121347Z 34005KT M10/M14 A3035 RMK A01 T10981138  RH  072%=      5-min Rain = 0
KOD1 121348Z 35006KT M10/M14 A3035 RMK A01 T10981138  RH  072%=      5-min Rain = 0
KOD1 121349Z 34005KT M10/M14 A3035 RMK A01 T10971138  RH  072%=      5-min Rain = 0
KOD1 121350Z 34005KT M10/M14 A3035 RMK A01 T10971138  RH  072%=      5-min Rain = 0
KOD1 121351Z 33005KT M10/M14 A3035 RMK A01 T10971138  RH  072%=      5-min Rain = 0
KOD1 121352Z 32005KT M10/M14 A3035 RMK A01 T10961138  RH  072%=      5-min Rain = 0
KOD1 121353Z 32005KT M10/M14 A3035 RMK A01 T10961138  RH  072%=      5-min Rain = 0
KOD1 121354Z 32005KT M10/M14 A3036 RMK A01 T10961138  RH  071%=      5-min Rain = 0
KOD1 121355Z 31004KT M10/M14 A3036 RMK A01 T10961138  RH  071%=      5-min Rain = 0
KOD1 121356Z 32005KT M10/M14 A3036 RMK A01 T10961138  RH  071%=      5-min Rain = 0
KOD1 121357Z 32005KT M10/M14 A3036 RMK A01 T10961138  RH  071%=      5-min Rain = 0
KOD1 121358Z 32004KT M10/M14 A3036 RMK A01 T10961138  RH  071%=      5-min Rain = 0
KOD1 121359Z 32004KT M10/M14 A3036 RMK A01 T10961138  RH  072%=      5-min Rain = 0
KOD1 121400Z 31004KT M10/M14 A3036 RMK A01 T10961138  RH  072%=      5-min Rain = 0
KOD1 121401Z 31003KT M10/M14 A3036 RMK A01 T10961138  RH  072%=      5-min Rain = 0
KOD1 121402Z 31004KT M10/M14 A3036 RMK A01 T10961138  RH  072%=      5-min Rain = 0
KOD1 121403Z 31004KT M10/M14 A3036 RMK A01 T10961138  RH  072%=      5-min Rain = 0
KOD1 121404Z 31005KT M10/M14 A3036 RMK A01 T10961138  RH  072%=      5-min Rain = 0
KOD1 121405Z 32005KT M10/M14 A3036 RMK A01 T10961138  RH  072%=      5-min Rain = 0
KOD1 121406Z 32006KT M10/M14 A3036 RMK A01 T10971138  RH  072%=      5-min Rain = 0
KOD1 121407Z 32006KT M10/M14 A3036 RMK A01 T10971138  RH  072%=      5-min Rain = 0
KOD1 121408Z 32006KT M10/M14 A3036 RMK A01 T10971137  RH  072%=      5-min Rain = 0
KOD1 121409Z 32005KT M10/M14 A3036 RMK A01 T10961136  RH  073%=      5-min Rain = 0
KOD1 121410Z 32005KT M10/M14 A3037 RMK A01 T10951135  RH  073%=      5-min Rain = 0
KOD1 121411Z 31005KT M09/M13 A3037 RMK A01 T10941134  RH  073%=      5-min Rain = 0
KOD1 121412Z 31006KT M09/M13 A3037 RMK A01 T10931134  RH  072%=      5-min Rain = 0
KOD1 121413Z 31006KT M09/M13 A3037 RMK A01 T10921134  RH  072%=      5-min Rain = 0
KOD1 121414Z 32006KT M09/M13 A3037 RMK A01 T10911133  RH  071%=      5-min Rain = 0
KOD1 121415Z 32006KT M09/M13 A3037 RMK A01 T10901132  RH  071%=      5-min Rain = 0
KOD1 121416Z 33007KT M09/M13 A3037 RMK A01 T10891132  RH  071%=      5-min Rain = 0
KOD1 121417Z 33007KT M09/M13 A3037 RMK A01 T10881131  RH  071%=      5-min Rain = 0
KOD1 121418Z 33007KT M09/M13 A3037 RMK A01 T10871130  RH  071%=      5-min Rain = 0
KOD1 121419Z 33008KT M09/M13 A3037 RMK A01 T10851129  RH  070%=      5-min Rain = 0
KOD1 121420Z 33007KT M08/M13 A3037 RMK A01 T10841129  RH  070%=      5-min Rain = 0
KOD1 121421Z 33006KT M08/M13 A3037 RMK A01 T10831129  RH  069%=      5-min Rain = 0
KOD1 121422Z 33006KT M08/M13 A3037 RMK A01 T10821129  RH  069%=      5-min Rain = 0
KOD1 121423Z 33007KT M08/M13 A3037 RMK A01 T10811130  RH  068%=      5-min Rain = 0
KOD1 121424Z 33007KT M08/M13 A3037 RMK A01 T10801130  RH  067%=      5-min Rain = 0
KOD1 121425Z 34008KT M08/M13 A3037 RMK A01 T10801131  RH  067%=      5-min Rain = 0
KOD1 121426Z 34007KT M08/M13 A3037 RMK A01 T10791131  RH  066%=      5-min Rain = 0
KOD1 121427Z 34008KT M08/M13 A3037 RMK A01 T10781131  RH  066%=      5-min Rain = 0
KOD1 121428Z 34008KT M08/M13 A3037 RMK A01 T10781132  RH  065%=      5-min Rain = 0
KOD1 121429Z 34008KT M08/M13 A3037 RMK A01 T10771133  RH  064%=      5-min Rain = 0
KOD1 121430Z 34009KT M08/M13 A3038 RMK A01 T10761134  RH  063%=      5-min Rain = 0
KOD1 121431Z 33009KT M08/M14 A3038 RMK A01 T10761135  RH  063%=      5-min Rain = 0
KOD1 121432Z 33009KT M08/M14 A3038 RMK A01 T10751135  RH  062%=      5-min Rain = 0
KOD1 121433Z 33007KT M07/M14 A3038 RMK A01 T10741135  RH  062%=      5-min Rain = 0
KOD1 121434Z 33007KT M07/M13 A3038 RMK A01 T10731133  RH  062%=      5-min Rain = 0
KOD1 121435Z 33008KT M07/M13 A3038 RMK A01 T10731134  RH  062%=      5-min Rain = 0
KOD1 121436Z 33008KT M07/M14 A3038 RMK A01 T10721135  RH  061%=      5-min Rain = 0
KOD1 121437Z 33008KT M07/M14 A3038 RMK A01 T10721135  RH  060%=      5-min Rain = 0
KOD1 121438Z 33008KT M07/M14 A3038 RMK A01 T10711135  RH  060%=      5-min Rain = 0
KOD1 121439Z 33007KT M07/M14 A3038 RMK A01 T10711135  RH  060%=      5-min Rain = 0
KOD1 121440Z 33008KT M07/M14 A3038 RMK A01 T10701135  RH  060%=      5-min Rain = 0
KOD1 121441Z 34009KT M07/M14 A3038 RMK A01 T10701136  RH  059%=      5-min Rain = 0
KOD1 121442Z 33009KT M07/M14 A3038 RMK A01 T10691137  RH  059%=      5-min Rain = 0
KOD1 121443Z 33007KT M07/M14 A3038 RMK A01 T10691137  RH  059%=      5-min Rain = 0
KOD1 121444Z 34006KT M07/M14 A3038 RMK A01 T10681135  RH  059%=      5-min Rain = 0
KOD1 121445Z 34007KT M07/M14 A3038 RMK A01 T10671136  RH  058%=      5-min Rain = 0
KOD1 121446Z 34008KT M07/M14 A3038 RMK A01 T10661137  RH  057%=      5-min Rain = 0
KOD1 121447Z 34009KT M07/M14 A3038 RMK A01 T10661139  RH  056%=      5-min Rain = 0
KOD1 121448Z 34009KT M07/M14 A3038 RMK A01 T10661140  RH  056%=      5-min Rain = 0
KOD1 121449Z 34008KT M07/M14 A3038 RMK A01 T10661140  RH  056%=      5-min Rain = 0
KOD1 121450Z 34009KT M07/M14 A3038 RMK A01 T10661140  RH  056%=      5-min Rain = 0
KOD1 121451Z 35009KT M07/M14 A3038 RMK A01 T10661140  RH  055%=      5-min Rain = 0
KOD1 121452Z 34009KT M07/M14 A3038 RMK A01 T10651139  RH  056%=      5-min Rain = 0
KOD1 121453Z 34008KT M07/M14 A3038 RMK A01 T10651140  RH  055%=      5-min Rain = 0
KOD1 121454Z 35007KT M06/M14 A3038 RMK A01 T10631138  RH  055%=      5-min Rain = 0
KOD1 121455Z 34009KT M06/M14 A3038 RMK A01 T10631140  RH  054%=      5-min Rain = 0
KOD1 121456Z 34009KT M06/M14 A3038 RMK A01 T10621141  RH  054%=      5-min Rain = 0
KOD1 121457Z 34009KT M06/M14 A3038 RMK A01 T10621142  RH  053%=      5-min Rain = 0
KOD1 121458Z 34009KT M06/M14 A3038 RMK A01 T10621142  RH  053%=      5-min Rain = 0
KOD1 121459Z 34007KT M06/M14 A3038 RMK A01 T10621141  RH  054%=      5-min Rain = 0
KOD1 121500Z 34007KT M06/M14 A3038 RMK A01 T10611140  RH  054%=      5-min Rain = 0
KOD1 121501Z 34010KT M06/M14 A3038 RMK A01 T10601141  RH  053%=      5-min Rain = 0
KOD1 121502Z 35009KT M06/M14 A3038 RMK A01 T10601144  RH  052%=      5-min Rain = 0
KOD1 121503Z 35010KT M06/M14 A3038 RMK A01 T10601142  RH  052%=      5-min Rain = 0
KOD1 121504Z 35010KT M06/M14 A3038 RMK A01 T10601144  RH  052%=      5-min Rain = 0
KOD1 121505Z 35008KT M06/M14 A3038 RMK A01 T10601142  RH  052%=      5-min Rain = 0
KOD1 121506Z 35008KT M06/M14 A3039 RMK A01 T10591142  RH  052%=      5-min Rain = 0
KOD1 121507Z 34008KT M06/M14 A3039 RMK A01 T10591144  RH  051%=      5-min Rain = 0
KOD1 121508Z 34009KT M06/M14 A3039 RMK A01 T10591144  RH  051%=      5-min Rain = 0
KOD1 121509Z 35009KT M06/M15 A3039 RMK A01 T10591145  RH  051%=      5-min Rain = 0
KOD1 121510Z 35009KT M06/M14 A3039 RMK A01 T10581144  RH  051%=      5-min Rain = 0
KOD1 121511Z 35008KT M06/M14 A3038 RMK A01 T10571143  RH  051%=      5-min Rain = 0
KOD1 121512Z 36010KT M06/M15 A3039 RMK A01 T10561145  RH  050%=      5-min Rain = 0
KOD1 121513Z 36009KT M06/M14 A3039 RMK A01 T10561144  RH  050%=      5-min Rain = 0
KOD1 121514Z 35007KT M06/M14 A3039 RMK A01 T10561144  RH  050%=      5-min Rain = 0
KOD1 121515Z 36009KT M06/M14 A3039 RMK A01 T10561144  RH  050%=      5-min Rain = 0
KOD1 121516Z 34009KT M06/M14 A3039 RMK A01 T10561144  RH  050%=      5-min Rain = 0
KOD1 121517Z 33009KT M06/M15 A3039 RMK A01 T10561145  RH  049%=      5-min Rain = 0
KOD1 121518Z 34009KT M06/M15 A3039 RMK A01 T10561145  RH  049%=      5-min Rain = 0
KOD1 121519Z 34008KT M06/M14 A3039 RMK A01 T10551144  RH  050%=      5-min Rain = 0
KOD1 121520Z 34009KT M06/M15 A3039 RMK A01 T10551146  RH  049%=      5-min Rain = 0
KOD1 121521Z 35010KT M05/M15 A3039 RMK A01 T10541146  RH  049%=      5-min Rain = 0
KOD1 121522Z 35010KT M05/M15 A3038 RMK A01 T10541147  RH  048%=      5-min Rain = 0
KOD1 121523Z 36010KT M05/M15 A3038 RMK A01 T10541149  RH  047%=      5-min Rain = 0
KOD1 121524Z 36009KT M05/M15 A3038 RMK A01 T10531151  RH  046%=      5-min Rain = 0
KOD1 121525Z 01009KT M05/M15 A3039 RMK A01 T10531150  RH  047%=      5-min Rain = 0
KOD1 121526Z 00009KT M05/M15 A3039 RMK A01 T10531150  RH  046%=      5-min Rain = 0
KOD1 121527Z 36009KT M05/M15 A3039 RMK A01 T10521149  RH  047%=      5-min Rain = 0
KOD1 121528Z 36008KT M05/M15 A3039 RMK A01 T10521150  RH  046%=      5-min Rain = 0
KOD1 121529Z 35008KT M05/M15 A3039 RMK A01 T10521152  RH  045%=      5-min Rain = 0
KOD1 121530Z 35009KT M05/M15 A3039 RMK A01 T10521151  RH  046%=      5-min Rain = 0
KOD1 121531Z 35008KT M05/M15 A3039 RMK A01 T10511150  RH  046%=      5-min Rain = 0
KOD1 121532Z 35008KT M05/M15 A3039 RMK A01 T10511151  RH  046%=      5-min Rain = 0
KOD1 121533Z 36008KT M05/M15 A3039 RMK A01 T10511149  RH  046%=      5-min Rain = 0
KOD1 121534Z 01010KT M05/M15 A3039 RMK A01 T10501153  RH  045%=      5-min Rain = 0
KOD1 121535Z 01008KT M05/M16 A3039 RMK A01 T10501155  RH  044%=      5-min Rain = 0
KOD1 121536Z 01006KT M05/M15 A3039 RMK A01 T10511152  RH  045%=      5-min Rain = 0
KOD1 121537Z 00009KT M05/M15 A3039 RMK A01 T10501151  RH  045%=      5-min Rain = 0
KOD1 121538Z 35009KT M05/M15 A3039 RMK A01 T10491153  RH  044%=      5-min Rain = 0
KOD1 121539Z 00009KT M05/M15 A3039 RMK A01 T10501152  RH  045%=      5-min Rain = 0
KOD1 121540Z 01008KT M05/M15 A3039 RMK A01 T10491150  RH  045%=      5-min Rain = 0
KOD1 121541Z 01009KT M05/M15 A3039 RMK A01 T10491151  RH  045%=      5-min Rain = 0
KOD1 121542Z 36008KT M05/M15 A3039 RMK A01 T10491151  RH  045%=      5-min Rain = 0
KOD1 121543Z 36006KT M05/M15 A3039 RMK A01 T10481148  RH  046%=      5-min Rain = 0
KOD1 121544Z 35008KT M05/M15 A3039 RMK A01 T10471149  RH  045%=      5-min Rain = 0
KOD1 121545Z 36006KT M05/M15 A3039 RMK A01 T10471149  RH  045%=      5-min Rain = 0
KOD1 121546Z 35007KT M05/M15 A3039 RMK A01 T10461147  RH  045%=      5-min Rain = 0
KOD1 121547Z 35007KT M04/M15 A3039 RMK A01 T10441147  RH  045%=      5-min Rain = 0
KOD1 121548Z 36006KT M05/M15 A3039 RMK A01 T10451147  RH  045%=      5-min Rain = 0
KOD1 121549Z 01007KT M04/M15 A3039 RMK A01 T10441146  RH  045%=      5-min Rain = 0
KOD1 121550Z 36006KT M04/M15 A3039 RMK A01 T10441149  RH  044%=      5-min Rain = 0
KOD1 121551Z 35006KT M04/M15 A3039 RMK A01 T10441151  RH  043%=      5-min Rain = 0
KOD1 121552Z 34005KT M04/M15 A3039 RMK A01 T10441149  RH  044%=      5-min Rain = 0
KOD1 121553Z 35007KT M04/M15 A3039 RMK A01 T10441151  RH  043%=      5-min Rain = 0
KOD1 121554Z 36008KT M04/M15 A3039 RMK A01 T10431149  RH  043%=      5-min Rain = 0
KOD1 121555Z 01007KT M04/M15 A3039 RMK A01 T10431150  RH  043%=      5-min Rain = 0
KOD1 121556Z 01008KT M05/M15 A3039 RMK A01 T10451152  RH  043%=      5-min Rain = 0
KOD1 121557Z 01008KT M05/M15 A3039 RMK A01 T10461151  RH  044%=      5-min Rain = 0
KOD1 121558Z 02006KT M05/M15 A3039 RMK A01 T10461150  RH  044%=      5-min Rain = 0
KOD1 121559Z 01007KT M05/M15 A3039 RMK A01 T10451150  RH  044%=      5-min Rain = 0
KOD1 121600Z 02007KT M05/M15 A3039 RMK A01 T10451153  RH  043%=      5-min Rain = 0
KOD1 121601Z 03007KT M05/M15 A3039 RMK A01 T10461152  RH  043%=      5-min Rain = 0
KOD1 121602Z 01006KT M05/M15 A3038 RMK A01 T10461150  RH  044%=      5-min Rain = 0
KOD1 121603Z 00006KT M04/M15 A3038 RMK A01 T10441149  RH  044%=      5-min Rain = 0
KOD1 121604Z 01008KT M04/M15 A3038 RMK A01 T10431149  RH  043%=      5-min Rain = 0
KOD1 121605Z 03007KT M04/M15 A3038 RMK A01 T10421150  RH  043%=      5-min Rain = 0
KOD1 121606Z 02006KT M04/M15 A3038 RMK A01 T10431149  RH  043%=      5-min Rain = 0
KOD1 121607Z 02004KT M04/M15 A3038 RMK A01 T10411148  RH  043%=      5-min Rain = 0
KOD1 121608Z 00007KT M04/M15 A3038 RMK A01 T10411149  RH  043%=      5-min Rain = 0
KOD1 121609Z 02007KT M04/M15 A3038 RMK A01 T10411149  RH  043%=      5-min Rain = 0
KOD1 121610Z 00006KT M04/M15 A3038 RMK A01 T10411148  RH  043%=      5-min Rain = 0
KOD1 121611Z 36007KT M04/M15 A3038 RMK A01 T10391147  RH  043%=      5-min Rain = 0
KOD1 121612Z 00009KT M04/M15 A3038 RMK A01 T10381150  RH  042%=      5-min Rain = 0
KOD1 121613Z 36007KT M04/M15 A3038 RMK A01 T10401153  RH  041%=      5-min Rain = 0
KOD1 121614Z 34007KT M04/M15 A3038 RMK A01 T10411152  RH  042%=      5-min Rain = 0
KOD1 121615Z 34007KT M04/M15 A3038 RMK A01 T10411152  RH  042%=      5-min Rain = 0
KOD1 121616Z 01006KT M04/M15 A3038 RMK A01 T10411150  RH  042%=      5-min Rain = 0
KOD1 121617Z 02006KT M04/M15 A3038 RMK A01 T10401151  RH  042%=      5-min Rain = 0
KOD1 121618Z 03005KT M04/M15 A3038 RMK A01 T10381149  RH  042%=      5-min Rain = 0
KOD1 121619Z 02006KT M04/M15 A3038 RMK A01 T10381152  RH  041%=      5-min Rain = 0
KOD1 121620Z 00005KT M04/M15 A3038 RMK A01 T10381152  RH  041%=      5-min Rain = 0
KOD1 121621Z 02006KT M04/M15 A3038 RMK A01 T10371151  RH  041%=      5-min Rain = 0
KOD1 121622Z 01005KT M04/M15 A3038 RMK A01 T10371153  RH  040%=      5-min Rain = 0
KOD1 121623Z 03003KT M04/M15 A3038 RMK A01 T10371150  RH  041%=      5-min Rain = 0
KOD1 121624Z 02002KT M04/M15 A3038 RMK A01 T10371152  RH  040%=      5-min Rain = 0
KOD1 121625Z 04003KT M04/M15 A3038 RMK A01 T10381152  RH  041%=      5-min Rain = 0
KOD1 121626Z 04005KT M04/M15 A3038 RMK A01 T10371149  RH  042%=      5-min Rain = 0
KOD1 121627Z 05007KT M04/M15 A3038 RMK A01 T10371151  RH  041%=      5-min Rain = 0
KOD1 121628Z 05004KT M04/M15 A3038 RMK A01 T10381151  RH  041%=      5-min Rain = 0
KOD1 121629Z 07002KT M04/M15 A3038 RMK A01 T10381149  RH  042%=      5-min Rain = 0
KOD1 121630Z 06002KT M04/M15 A3038 RMK A01 T10361146  RH  042%=      5-min Rain = 0
KOD1 121631Z 00004KT M03/M15 A3038 RMK A01 T10341146  RH  041%=      5-min Rain = 0
KOD1 121632Z 00006KT M03/M15 A3038 RMK A01 T10321149  RH  040%=      5-min Rain = 0
KOD1 121633Z 02005KT M03/M15 A3038 RMK A01 T10321151  RH  039%=      5-min Rain = 0
KOD1 121634Z 03004KT M03/M15 A3038 RMK A01 T10341150  RH  040%=      5-min Rain = 0
KOD1 121635Z 34005KT M03/M15 A3038 RMK A01 T10331148  RH  041%=      5-min Rain = 0
KOD1 121636Z 02003KT M03/M15 A3038 RMK A01 T10311149  RH  040%=      5-min Rain = 0
KOD1 121637Z 04005KT M03/M15 A3039 RMK A01 T10311151  RH  039%=      5-min Rain = 0
KOD1 121638Z 03005KT M03/M15 A3039 RMK A01 T10311148  RH  040%=      5-min Rain = 0
KOD1 121639Z 35006KT M03/M15 A3039 RMK A01 T10301150  RH  039%=      5-min Rain = 0
KOD1 121640Z 35006KT M03/M15 A3038 RMK A01 T10301152  RH  038%=      5-min Rain = 0
KOD1 121641Z 01003KT M03/M15 A3038 RMK A01 T10311153  RH  038%=      5-min Rain = 0
KOD1 121642Z 33005KT M03/M15 A3038 RMK A01 T10301151  RH  039%=      5-min Rain = 0
KOD1 121643Z 32005KT M03/M15 A3038 RMK A01 T10301152  RH  038%=      5-min Rain = 0
KOD1 121644Z 33004KT M03/M15 A3039 RMK A01 T10301154  RH  038%=      5-min Rain = 0
KOD1 121645Z 33002KT M03/M15 A3039 RMK A01 T10311152  RH  039%=      5-min Rain = 0
KOD1 121646Z 34003KT M03/M15 A3039 RMK A01 T10301149  RH  039%=      5-min Rain = 0
KOD1 121647Z 36004KT M03/M15 A3039 RMK A01 T10281151  RH  038%=      5-min Rain = 0
KOD1 121648Z 34004KT M03/M15 A3038 RMK A01 T10291150  RH  039%=      5-min Rain = 0
KOD1 121649Z 35005KT M03/M15 A3039 RMK A01 T10281151  RH  038%=      5-min Rain = 0
KOD1 121650Z 35003KT M03/M15 A3039 RMK A01 T10291151  RH  038%=      5-min Rain = 0
KOD1 121651Z 35005KT M03/M15 A3039 RMK A01 T10291152  RH  038%=      5-min Rain = 0
KOD1 121652Z 34005KT M03/M15 A3039 RMK A01 T10301151  RH  039%=      5-min Rain = 0
KOD1 121653Z 35006KT M03/M15 A3038 RMK A01 T10301150  RH  039%=      5-min Rain = 0
KOD1 121654Z 35005KT M03/M15 A3038 RMK A01 T10301150  RH  039%=      5-min Rain = 0
KOD1 121655Z 35004KT M03/M15 A3038 RMK A01 T10301150  RH  039%=      5-min Rain = 0
KOD1 121656Z 02003KT M03/M15 A3038 RMK A01 T10301151  RH  039%=      5-min Rain = 0
KOD1 121657Z 02003KT M03/M15 A3038 RMK A01 T10301150  RH  039%=      5-min Rain = 0
KOD1 121658Z 01002KT M03/M15 A3038 RMK A01 T10311151  RH  039%=      5-min Rain = 0
KOD1 121659Z 32003KT M03/M15 A3038 RMK A01 T10301149  RH  040%=      5-min Rain = 0
KOD1 121700Z 31003KT M03/M15 A3038 RMK A01 T10291151  RH  039%=      5-min Rain = 0
KOD1 121701Z 30003KT M03/M15 A3038 RMK A01 T10291150  RH  039%=      5-min Rain = 0
KOD1 121702Z 34003KT M03/M15 A3038 RMK A01 T10281150  RH  039%=      5-min Rain = 0
KOD1 121703Z 34004KT M03/M15 A3038 RMK A01 T10261148  RH  039%=      5-min Rain = 0
KOD1 121704Z 33005KT M03/M15 A3038 RMK A01 T10251151  RH  037%=      5-min Rain = 0
KOD1 121705Z 36005KT M03/M15 A3038 RMK A01 T10251150  RH  037%=      5-min Rain = 0
KOD1 121706Z 01004KT M02/M15 A3038 RMK A01 T10241150  RH  037%=      5-min Rain = 0
KOD1 121707Z 02002KT M03/M15 A3038 RMK A01 T10251152  RH  037%=      5-min Rain = 0
KOD1 121708Z 04003KT M03/M15 A3038 RMK A01 T10251151  RH  037%=      5-min Rain = 0
KOD1 121709Z 04004KT M03/M15 A3038 RMK A01 T10251152  RH  037%=      5-min Rain = 0
KOD1 121710Z 05003KT M03/M15 A3038 RMK A01 T10251152  RH  037%=      5-min Rain = 0
KOD1 121711Z 05001KT M03/M15 A3038 RMK A01 T10251150  RH  038%=      5-min Rain = 0
KOD1 121712Z 36003KT M02/M15 A3038 RMK A01 T10231148  RH  038%=      5-min Rain = 0
KOD1 121713Z 36002KT M02/M15 A3038 RMK A01 T10221150  RH  037%=      5-min Rain = 0
KOD1 121714Z 36005KT M02/M15 A3038 RMK A01 T10221150  RH  037%=      5-min Rain = 0
KOD1 121715Z 34004KT M02/M15 A3038 RMK A01 T10211150  RH  037%=      5-min Rain = 0
KOD1 121716Z 33002KT M02/M15 A3038 RMK A01 T10211150  RH  037%=      5-min Rain = 0
KOD1 121717Z 34003KT M02/M15 A3038 RMK A01 T10201149  RH  037%=      5-min Rain = 0
KOD1 121718Z 33003KT M02/M15 A3038 RMK A01 T10201150  RH  036%=      5-min Rain = 0
KOD1 121719Z 33003KT M02/M15 A3038 RMK A01 T10191150  RH  036%=      5-min Rain = 0
KOD1 121720Z 34005KT M02/M15 A3038 RMK A01 T10191150  RH  036%=      5-min Rain = 0
KOD1 121721Z 35004KT M02/M15 A3038 RMK A01 T10201151  RH  036%=      5-min Rain = 0
KOD1 121722Z 33002KT M02/M15 A3038 RMK A01 T10201151  RH  036%=      5-min Rain = 0
KOD1 121723Z 34002KT M02/M15 A3038 RMK A01 T10201150  RH  036%=      5-min Rain = 0
KOD1 121724Z 01005KT M02/M15 A3038 RMK A01 T10191151  RH  036%=      5-min Rain = 0
KOD1 121725Z 02005KT M02/M15 A3037 RMK A01 T10191151  RH  036%=      5-min Rain = 0
KOD1 121726Z 03004KT M02/M15 A3037 RMK A01 T10191152  RH  035%=      5-min Rain = 0
KOD1 121727Z 06002KT M02/M15 A3037 RMK A01 T10191152  RH  036%=      5-min Rain = 0
KOD1 121728Z 08002KT M02/M15 A3037 RMK A01 T10191152  RH  036%=      5-min Rain = 0
KOD1 121729Z 06001KT M02/M15 A3037 RMK A01 T10181149  RH  036%=      5-min Rain = 0
KOD1 121730Z 04002KT M02/M15 A3037 RMK A01 T10171150  RH  035%=      5-min Rain = 0
KOD1 121731Z 00004KT M02/M15 A3037 RMK A01 T10151148  RH  035%=      5-min Rain = 0
KOD1 121732Z 35005KT M01/M15 A3037 RMK A01 T10141151  RH  034%=      5-min Rain = 0
KOD1 121733Z 33004KT M01/M15 A3037 RMK A01 T10141150  RH  035%=      5-min Rain = 0
KOD1 121734Z 35003KT M01/M15 A3037 RMK A01 T10131149  RH  035%=      5-min Rain = 0
KOD1 121735Z 35004KT M01/M15 A3037 RMK A01 T10121150  RH  034%=      5-min Rain = 0
KOD1 121736Z 01004KT M01/M15 A3037 RMK A01 T10121150  RH  034%=      5-min Rain = 0
KOD1 121737Z 01002KT M01/M15 A3037 RMK A01 T10111149  RH  034%=      5-min Rain = 0
KOD1 121738Z 01004KT M01/M15 A3036 RMK A01 T10111151  RH  034%=      5-min Rain = 0
KOD1 121739Z 01003KT M01/M15 A3036 RMK A01 T10101151  RH  034%=      5-min Rain = 0
KOD1 121740Z 04002KT M01/M15 A3036 RMK A01 T10111152  RH  033%=      5-min Rain = 0
KOD1 121741Z 08001KT M01/M15 A3036 RMK A01 T10131152  RH  034%=      5-min Rain = 0
KOD1 121742Z 19000KT M01/M15 A3036 RMK A01 T10131151  RH  034%=      5-min Rain = 0
KOD1 121743Z 06000KT M01/M15 A3036 RMK A01 T10121149  RH  034%=      5-min Rain = 0
KOD1 121744Z 02002KT M01/M15 A3036 RMK A01 T10101150  RH  034%=      5-min Rain = 0
KOD1 121745Z 36005KT M01/M15 A3036 RMK A01 T10091149  RH  034%=      5-min Rain = 0
KOD1 121746Z 01004KT M01/M15 A3036 RMK A01 T10091151  RH  033%=      5-min Rain = 0
KOD1 121747Z 01003KT M01/M15 A3035 RMK A01 T10091151  RH  033%=      5-min Rain = 0
KOD1 121748Z 04001KT M01/M15 A3035 RMK A01 T10101151  RH  033%=      5-min Rain = 0
KOD1 121749Z 36003KT M01/M15 A3035 RMK A01 T10091151  RH  033%=      5-min Rain = 0
KOD1 121750Z 35002KT M01/M15 A3035 RMK A01 T10091151  RH  033%=      5-min Rain = 0
KOD1 121751Z 02003KT M01/M15 A3035 RMK A01 T10081148  RH  034%=      5-min Rain = 0
KOD1 121752Z 01004KT M01/M15 A3035 RMK A01 T10071149  RH  033%=      5-min Rain = 0
KOD1 121753Z 01004KT M01/M15 A3034 RMK A01 T10071152  RH  033%=      5-min Rain = 0
KOD1 121754Z 00003KT M01/M15 A3034 RMK A01 T10081152  RH  033%=      5-min Rain = 0
KOD1 121755Z 00001KT M01/M15 A3034 RMK A01 T10091152  RH  033%=      5-min Rain = 0
KOD1 121756Z 22000KT M01/M15 A3034 RMK A01 T10091152  RH  033%=      5-min Rain = 0
KOD1 121757Z 03002KT M01/M15 A3034 RMK A01 T10091151  RH  033%=      5-min Rain = 0
KOD1 121758Z 04003KT M01/M15 A3034 RMK A01 T10071149  RH  033%=      5-min Rain = 0
KOD1 121759Z 03003KT M01/M15 A3034 RMK A01 T10071153  RH  032%=      5-min Rain = 0
KOD1 121800Z 04003KT M01/M15 A3034 RMK A01 T10081153  RH  032%=      5-min Rain = 0
KOD1 121801Z 07002KT M01/M15 A3034 RMK A01 T10091152  RH  033%=      5-min Rain = 0
KOD1 121802Z 04002KT M01/M15 A3034 RMK A01 T10071147  RH  034%=      5-min Rain = 0
KOD1 121803Z 35005KT M00/M15 A3034 RMK A01 T10041149  RH  033%=      5-min Rain = 0
KOD1 121804Z 34004KT M00/M15 A3034 RMK A01 T10041149  RH  032%=      5-min Rain = 0
KOD1 121805Z 35003KT M00/M15 A3034 RMK A01 T10041150  RH  032%=      5-min Rain = 0
KOD1 121806Z 33004KT M00/M15 A3034 RMK A01 T10041149  RH  033%=      5-min Rain = 0
KOD1 121807Z 33005KT M00/M15 A3034 RMK A01 T10041150  RH  032%=      5-min Rain = 0
KOD1 121808Z 34003KT M01/M15 A3033 RMK A01 T10051149  RH  033%=      5-min Rain = 0
KOD1 121809Z 34003KT M00/M15 A3033 RMK A01 T10041148  RH  033%=      5-min Rain = 0
KOD1 121810Z 30003KT M00/M15 A3033 RMK A01 T10041150  RH  032%=      5-min Rain = 0
KOD1 121811Z 30002KT M00/M15 A3033 RMK A01 T10041147  RH  033%=      5-min Rain = 0
KOD1 121812Z 35003KT M00/M15 A3033 RMK A01 T10021147  RH  033%=      5-min Rain = 0
KOD1 121813Z 35003KT M00/M15 A3033 RMK A01 T10011147  RH  032%=      5-min Rain = 0
KOD1 121814Z 04004KT 00/15 A3033 RMK A01 T00000-146  RH  032%=      5-min Rain = 0
KOD1 121815Z 05003KT 00/15 A3033 RMK A01 T00-00-148  RH  032%=      5-min Rain = 0
KOD1 121816Z 06003KT M00/M15 A3033 RMK A01 T10011147  RH  032%=      5-min Rain = 0
KOD1 121817Z 08003KT 00/15 A3033 RMK A01 T00000-147  RH  032%=      5-min Rain = 0
KOD1 121818Z 07003KT 00/15 A3033 RMK A01 T00-00-148  RH  032%=      5-min Rain = 0
KOD1 121819Z 04004KT 00/M15 A3033 RMK A01 T00021146  RH  032%=      5-min Rain = 0
KOD1 121820Z 01004KT 00/M15 A3033 RMK A01 T00021148  RH  031%=      5-min Rain = 0
KOD1 121821Z 00004KT 00/M15 A3032 RMK A01 T00011145  RH  032%=      5-min Rain = 0
KOD1 121822Z 01005KT 00/M15 A3032 RMK A01 T00041145  RH  032%=      5-min Rain = 0
KOD1 121823Z 01004KT 00/M15 A3032 RMK A01 T00031147  RH  031%=      5-min Rain = 0
KOD1 121824Z 36003KT 00/M15 A3032 RMK A01 T00021147  RH  032%=      5-min Rain = 0
KOD1 121825Z 34004KT 00/M15 A3032 RMK A01 T00021146  RH  032%=      5-min Rain = 0
KOD1 121826Z 35004KT 00/M15 A3032 RMK A01 T00031145  RH  032%=      5-min Rain = 0
KOD1 121827Z 33003KT 00/M15 A3032 RMK A01 T00031147  RH  031%=      5-min Rain = 0
KOD1 121828Z 33002KT 00/M15 A3032 RMK A01 T00031146  RH  032%=      5-min Rain = 0
KOD1 121829Z 01004KT 00/M14 A3032 RMK A01 T00041144  RH  032%=      5-min Rain = 0
KOD1 121830Z 03006KT 01/M15 A3031 RMK A01 T00051145  RH  031%=      5-min Rain = 0
KOD1 121831Z 06005KT 01/M15 A3031 RMK A01 T00061146  RH  031%=      5-min Rain = 0
KOD1 121832Z 05006KT 01/M15 A3031 RMK A01 T00051148  RH  031%=      5-min Rain = 0
KOD1 121833Z 05005KT 00/M15 A3031 RMK A01 T00041148  RH  031%=      5-min Rain = 0
KOD1 121834Z 05003KT 00/M15 A3031 RMK A01 T00041148  RH  031%=      5-min Rain = 0
KOD1 121835Z 06003KT 00/M15 A3031 RMK A01 T00041147  RH  031%=      5-min Rain = 0
KOD1 121836Z 03005KT 00/M15 A3031 RMK A01 T00041147  RH  031%=      5-min Rain = 0
KOD1 121837Z 03004KT 00/M15 A3031 RMK A01 T00041147  RH  031%=      5-min Rain = 0
KOD1 121838Z 03006KT 01/M15 A3031 RMK A01 T00051147  RH  031%=      5-min Rain = 0
KOD1 121839Z 02004KT 01/M15 A3031 RMK A01 T00051147  RH  031%=      5-min Rain = 0
KOD1 121840Z 03004KT 01/M15 A3031 RMK A01 T00051148  RH  031%=      5-min Rain = 0
KOD1 121841Z 02004KT 00/M15 A3031 RMK A01 T00041147  RH  031%=      5-min Rain = 0
KOD1 121842Z 35004KT 01/M15 A3031 RMK A01 T00051146  RH  031%=      5-min Rain = 0
KOD1 121843Z 34005KT 01/M14 A3031 RMK A01 T00071144  RH  031%=      5-min Rain = 0
KOD1 121844Z 34006KT 01/M15 A3031 RMK A01 T00091147  RH  030%=      5-min Rain = 0
KOD1 121845Z 33006KT 01/M15 A3031 RMK A01 T00091146  RH  030%=      5-min Rain = 0
KOD1 121846Z 32006KT 01/M15 A3031 RMK A01 T00091147  RH  030%=      5-min Rain = 0
KOD1 121847Z 36006KT 01/M15 A3031 RMK A01 T00081146  RH  030%=      5-min Rain = 0
KOD1 121848Z 35005KT 01/M15 A3031 RMK A01 T00081147  RH  030%=      5-min Rain = 0
KOD1 121849Z 01005KT 01/M15 A3031 RMK A01 T00081146  RH  030%=      5-min Rain = 0
KOD1 121850Z 01006KT 01/M15 A3031 RMK A01 T00091148  RH  030%=      5-min Rain = 0
KOD1 121851Z 01006KT 01/M15 A3031 RMK A01 T00091147  RH  030%=      5-min Rain = 0
KOD1 121852Z 03005KT 01/M15 A3031 RMK A01 T00081148  RH  030%=      5-min Rain = 0
KOD1 121853Z 01002KT 01/M15 A3031 RMK A01 T00081147  RH  030%=      5-min Rain = 0
KOD1 121854Z 03002KT 01/M15 A303 RMK A01 T00091146  RH  030%=      5-min Rain = 0
KOD1 121855Z 01005KT 01/M15 A303 RMK A01 T00101145  RH  030%=      5-min Rain = 0
KOD1 121856Z 01007KT 01/M15 A303 RMK A01 T00111147  RH  030%=      5-min Rain = 0
KOD1 121857Z 00006KT 01/M15 A303 RMK A01 T00101148  RH  030%=      5-min Rain = 0
KOD1 121858Z 36004KT 01/M15 A303 RMK A01 T00101145  RH  030%=      5-min Rain = 0
KOD1 121859Z 36004KT 01/M15 A303 RMK A01 T00111146  RH  030%=      5-min Rain = 0
KOD1 121900Z 00005KT 01/M15 A303 RMK A01 T00111147  RH  030%=      5-min Rain = 0
KOD1 121901Z 35003KT 01/M15 A303 RMK A01 T00111146  RH  030%=      5-min Rain = 0
KOD1 121902Z 35005KT 01/M15 A303 RMK A01 T00111147  RH  030%=      5-min Rain = 0
KOD1 121903Z 00005KT 01/M15 A303 RMK A01 T00111147  RH  030%=      5-min Rain = 0
KOD1 121904Z 04005KT 01/M15 A303 RMK A01 T00121147  RH  030%=      5-min Rain = 0
KOD1 121905Z 07003KT 01/M15 A303 RMK A01 T00111146  RH  030%=      5-min Rain = 0
KOD1 121906Z 01003KT 01/M14 A303 RMK A01 T00131144  RH  030%=      5-min Rain = 0
KOD1 121907Z 02003KT 01/M15 A303 RMK A01 T00141147  RH  029%=      5-min Rain = 0
KOD1 121908Z 36003KT 01/M15 A303 RMK A01 T00131146  RH  029%=      5-min Rain = 0
KOD1 121909Z 02004KT 01/M15 A303 RMK A01 T00141145  RH  029%=      5-min Rain = 0
KOD1 121910Z 05003KT 02/M15 A303 RMK A01 T00151146  RH  029%=      5-min Rain = 0
KOD1 121911Z 06002KT 01/M15 A303 RMK A01 T00141146  RH  029%=      5-min Rain = 0
KOD1 121912Z 05003KT 02/M14 A3029 RMK A01 T00161144  RH  029%=      5-min Rain = 0
KOD1 121913Z 08004KT 02/M15 A3029 RMK A01 T00161146  RH  029%=      5-min Rain = 0
KOD1 121914Z 05004KT 02/M14 A3029 RMK A01 T00181142  RH  029%=      5-min Rain = 0
KOD1 121915Z 04006KT 02/M15 A3029 RMK A01 T00211145  RH  028%=      5-min Rain = 0
KOD1 121916Z 03006KT 02/M15 A3029 RMK A01 T00201147  RH  028%=      5-min Rain = 0
KOD1 121917Z 03005KT 02/M15 A3029 RMK A01 T00191148  RH  028%=      5-min Rain = 0
KOD1 121918Z 05007KT 02/M15 A3029 RMK A01 T00171147  RH  028%=      5-min Rain = 0
KOD1 121919Z 05006KT 02/M15 A3029 RMK A01 T00171147  RH  028%=      5-min Rain = 0
KOD1 121920Z 06006KT 02/M15 A3029 RMK A01 T00161147  RH  028%=      5-min Rain = 0
KOD1 121921Z 06006KT 02/M15 A3029 RMK A01 T00171149  RH  028%=      5-min Rain = 0
KOD1 121922Z 06005KT 02/M15 A3029 RMK A01 T00161148  RH  028%=      5-min Rain = 0
KOD1 121923Z 04005KT 02/M15 A3029 RMK A01 T00161148  RH  028%=      5-min Rain = 0
KOD1 121924Z 04006KT 02/M15 A3029 RMK A01 T00171148  RH  028%=      5-min Rain = 0
KOD1 121925Z 04004KT 02/M15 A3029 RMK A01 T00171147  RH  028%=      5-min Rain = 0
KOD1 121926Z 08003KT 02/M15 A3029 RMK A01 T00181146  RH  028%=      5-min Rain = 0
KOD1 121927Z 02004KT 02/M15 A3029 RMK A01 T00201147  RH  028%=      5-min Rain = 0
KOD1 121928Z 03006KT 02/M15 A3029 RMK A01 T00191149  RH  028%=      5-min Rain = 0
KOD1 121929Z 01004KT 02/M15 A3028 RMK A01 T00181148  RH  028%=      5-min Rain = 0
KOD1 121930Z 03005KT 02/M15 A3028 RMK A01 T00191147  RH  028%=      5-min Rain = 0
KOD1 121931Z 04004KT 02/M15 A3028 RMK A01 T00191148  RH  028%=      5-min Rain = 0
KOD1 121932Z 02002KT 02/M15 A3028 RMK A01 T00181148  RH  028%=      5-min Rain = 0
KOD1 121933Z 02003KT 02/M15 A3028 RMK A01 T00181146  RH  028%=      5-min Rain = 0
KOD1 121934Z 02005KT 02/M15 A3028 RMK A01 T00191146  RH  028%=      5-min Rain = 0
KOD1 121935Z 03004KT 02/M15 A3028 RMK A01 T00191146  RH  028%=      5-min Rain = 0
KOD1 121936Z 34001KT 02/M15 A3028 RMK A01 T00201146  RH  028%=      5-min Rain = 0
KOD1 121937Z 05000KT 02/M15 A3028 RMK A01 T00201145  RH  028%=      5-min Rain = 0
KOD1 121938Z 02002KT 02/M14 A3028 RMK A01 T00211143  RH  028%=      5-min Rain = 0
KOD1 121939Z 00003KT 02/M15 A3028 RMK A01 T00231145  RH  028%=      5-min Rain = 0
KOD1 121940Z 36004KT 02/M15 A3028 RMK A01 T00221145  RH  028%=      5-min Rain = 0
KOD1 121941Z 33004KT 02/M15 A3027 RMK A01 T00221146  RH  028%=      5-min Rain = 0
KOD1 121942Z 32004KT 02/M14 A3027 RMK A01 T00211144  RH  028%=      5-min Rain = 0
KOD1 121943Z 02004KT 02/M14 A3027 RMK A01 T00231142  RH  028%=      5-min Rain = 0
KOD1 121944Z 05005KT 03/M14 A3027 RMK A01 T00251142  RH  028%=      5-min Rain = 0
KOD1 121945Z 06006KT 03/M14 A3027 RMK A01 T00281144  RH  027%=      5-min Rain = 0
KOD1 121946Z 06005KT 03/M15 A3027 RMK A01 T00261146  RH  027%=      5-min Rain = 0
KOD1 121947Z 03004KT 02/M15 A3028 RMK A01 T00241146  RH  027%=      5-min Rain = 0
KOD1 121948Z 02004KT 02/M15 A3028 RMK A01 T00241145  RH  028%=      5-min Rain = 0
KOD1 121949Z 01004KT 02/M15 A3028 RMK A01 T00241146  RH  027%=      5-min Rain = 0
KOD1 121950Z 03003KT 02/M14 A3028 RMK A01 T00241144  RH  028%=      5-min Rain = 0
KOD1 121951Z 09002KT 02/M15 A3028 RMK A01 T00241146  RH  027%=      5-min Rain = 0
KOD1 121952Z 11002KT 02/M15 A3028 RMK A01 T00241146  RH  027%=      5-min Rain = 0
KOD1 121953Z 08002KT 02/M14 A3028 RMK A01 T00241144  RH  028%=      5-min Rain = 0
KOD1 121954Z 06003KT 03/M14 A3028 RMK A01 T00261144  RH  027%=      5-min Rain = 0
KOD1 121955Z 07001KT 03/M15 A3028 RMK A01 T00261146  RH  027%=      5-min Rain = 0
KOD1 121956Z 10001KT 03/M15 A3028 RMK A01 T00271145  RH  027%=      5-min Rain = 0
KOD1 121957Z 33002KT 03/M14 A3028 RMK A01 T00281144  RH  027%=      5-min Rain = 0
KOD1 121958Z 00004KT 03/M14 A3028 RMK A01 T00291144  RH  027%=      5-min Rain = 0
KOD1 121959Z 04004KT 03/M14 A3028 RMK A01 T00291144  RH  027%=      5-min Rain = 0
KOD1 122000Z 03005KT 03/M14 A3027 RMK A01 T00301142  RH  027%=      5-min Rain = 0
KOD1 122001Z 05006KT 03/M14 A3027 RMK A01 T00311143  RH  026%=      5-min Rain = 0
KOD1 122002Z 03005KT 03/M14 A3027 RMK A01 T00321143  RH  026%=      5-min Rain = 0
KOD1 122003Z 04006KT 03/M14 A3027 RMK A01 T00321144  RH  026%=      5-min Rain = 0
KOD1 122004Z 04004KT 03/M14 A3027 RMK A01 T00311144  RH  026%=      5-min Rain = 0
KOD1 122005Z 02004KT 03/M15 A3027 RMK A01 T00301145  RH  026%=      5-min Rain = 0
KOD1 122006Z 02004KT 03/M14 A3027 RMK A01 T00291144  RH  027%=      5-min Rain = 0
KOD1 122007Z 36003KT 03/M14 A3027 RMK A01 T00311143  RH  027%=      5-min Rain = 0
KOD1 122008Z 34002KT 03/M15 A3027 RMK A01 T00311145  RH  026%=      5-min Rain = 0
KOD1 122009Z 29002KT 03/M14 A3027 RMK A01 T00311144  RH  026%=      5-min Rain = 0
KOD1 122010Z 02001KT 03/M14 A3027 RMK A01 T00311143  RH  027%=      5-min Rain = 0
KOD1 122011Z 07002KT 03/M14 A3027 RMK A01 T00321142  RH  027%=      5-min Rain = 0
KOD1 122012Z 13003KT 03/M14 A3027 RMK A01 T00331142  RH  026%=      5-min Rain = 0
KOD1 122013Z 12004KT 03/M15 A3027 RMK A01 T00321145  RH  026%=      5-min Rain = 0
KOD1 122014Z 13001KT 03/M15 A3027 RMK A01 T00311145  RH  026%=      5-min Rain = 0
KOD1 122015Z 04003KT 03/M14 A3027 RMK A01 T00321141  RH  027%=      5-min Rain = 0
KOD1 122016Z 04004KT 03/M14 A3027 RMK A01 T00341143  RH  026%=      5-min Rain = 0
KOD1 122017Z 03005KT 03/M14 A3027 RMK A01 T00341142  RH  026%=      5-min Rain = 0
KOD1 122018Z 02003KT 03/M14 A3027 RMK A01 T00341144  RH  026%=      5-min Rain = 0
KOD1 122019Z 00003KT 03/M14 A3027 RMK A01 T00341143  RH  026%=      5-min Rain = 0
KOD1 122020Z 34004KT 03/M14 A3027 RMK A01 T00341143  RH  026%=      5-min Rain = 0
KOD1 122021Z 35001KT 03/M14 A3027 RMK A01 T00341142  RH  026%=      5-min Rain = 0
KOD1 122022Z 33001KT 04/M14 A3027 RMK A01 T00351142  RH  026%=      5-min Rain = 0
KOD1 122023Z 04002KT 04/M14 A3027 RMK A01 T00361142  RH  026%=      5-min Rain = 0
KOD1 122024Z 04004KT 04/M14 A3027 RMK A01 T00361143  RH  026%=      5-min Rain = 0
KOD1 122025Z 04001KT 04/M14 A3027 RMK A01 T00361142  RH  026%=      5-min Rain = 0
KOD1 122026Z 04003KT 04/M14 A3027 RMK A01 T00361142  RH  026%=      5-min Rain = 0
KOD1 122027Z 03004KT 04/M14 A3026 RMK A01 T00371142  RH  026%=      5-min Rain = 0
KOD1 122028Z 03003KT 04/M14 A3026 RMK A01 T00371142  RH  026%=      5-min Rain = 0
KOD1 122029Z 10003KT 04/M14 A3026 RMK A01 T00371142  RH  026%=      5-min Rain = 0
KOD1 122030Z 13003KT 04/M14 A3026 RMK A01 T00351144  RH  026%=      5-min Rain = 0
KOD1 122031Z 15002KT 04/M14 A3026 RMK A01 T00361141  RH  026%=      5-min Rain = 0
KOD1 122032Z 17001KT 04/M14 A3026 RMK A01 T00381140  RH  026%=      5-min Rain = 0
KOD1 122033Z 00000KT 04/M14 A3026 RMK A01 T00401139  RH  026%=      5-min Rain = 0
KOD1 122034Z 04002KT 04/M14 A3026 RMK A01 T00421140  RH  025%=      5-min Rain = 0
KOD1 122035Z 05002KT 04/M14 A3026 RMK A01 T00421140  RH  025%=      5-min Rain = 0
KOD1 122036Z 03001KT 04/M14 A3026 RMK A01 T00431141  RH  025%=      5-min Rain = 0
KOD1 122037Z 06002KT 04/M14 A3026 RMK A01 T00421141  RH  025%=      5-min Rain = 0
KOD1 122038Z 09004KT 04/M14 A3026 RMK A01 T00411142  RH  025%=      5-min Rain = 0
KOD1 122039Z 10006KT 04/M14 A3026 RMK A01 T00401140  RH  026%=      5-min Rain = 0
KOD1 122040Z 10005KT 04/M14 A3026 RMK A01 T00391143  RH  025%=      5-min Rain = 0
KOD1 122041Z 09005KT 04/M14 A3026 RMK A01 T00361141  RH  026%=      5-min Rain = 0
KOD1 122042Z 10008KT 04/M14 A3026 RMK A01 T00381139  RH  026%=      5-min Rain = 0
KOD1 122043Z 09008KT 04/M14 A3026 RMK A01 T00371142  RH  026%=      5-min Rain = 0
KOD1 122044Z 09008KT 04/M14 A3025 RMK A01 T00361141  RH  026%=      5-min Rain = 0
KOD1 122045Z 09006KT 04/M14 A3025 RMK A01 T00351142  RH  026%=      5-min Rain = 0
KOD1 122046Z 09006KT 04/M14 A3025 RMK A01 T00351140  RH  026%=      5-min Rain = 0
KOD1 122047Z 08004KT 04/M14 A3025 RMK A01 T00351142  RH  026%=      5-min Rain = 0
KOD1 122048Z 05003KT 04/M14 A3025 RMK A01 T00351140  RH  026%=      5-min Rain = 0
KOD1 122049Z 09007KT 04/M14 A3025 RMK A01 T00371139  RH  026%=      5-min Rain = 0
KOD1 122050Z 07005KT 04/M14 A3025 RMK A01 T00371141  RH  026%=      5-min Rain = 0
KOD1 122051Z 10005KT 04/M14 A3025 RMK A01 T00371141  RH  026%=      5-min Rain = 0
KOD1 122052Z 10004KT 04/M14 A3026 RMK A01 T00371141  RH  026%=      5-min Rain = 0
KOD1 122053Z 08003KT 04/M14 A3026 RMK A01 T00381140  RH  026%=      5-min Rain = 0
KOD1 122054Z 10004KT 04/M14 A3026 RMK A01 T00381141  RH  026%=      5-min Rain = 0
KOD1 122055Z 13001KT 04/M14 A3026 RMK A01 T00361143  RH  026%=      5-min Rain = 0
KOD1 122056Z 13002KT 04/M14 A3026 RMK A01 T00361139  RH  026%=      5-min Rain = 0
KOD1 122057Z 12003KT 04/M14 A3026 RMK A01 T00391138  RH  026%=      5-min Rain = 0
KOD1 122058Z 10007KT 04/M14 A3026 RMK A01 T00401140  RH  026%=      5-min Rain = 0
KOD1 122059Z 10005KT 04/M14 A3026 RMK A01 T00391142  RH  025%=      5-min Rain = 0
KOD1 122100Z 11004KT 04/M14 A3026 RMK A01 T00371142  RH  026%=      5-min Rain = 0
KOD1 122101Z 08002KT 04/M14 A3026 RMK A01 T00361141  RH  026%=      5-min Rain = 0
KOD1 122102Z 09004KT 04/M14 A3026 RMK A01 T00361142  RH  026%=      5-min Rain = 0
KOD1 122103Z 10004KT 04/M14 A3026 RMK A01 T00351142  RH  026%=      5-min Rain = 0
KOD1 122104Z 10002KT 04/M14 A3026 RMK A01 T00351141  RH  026%=      5-min Rain = 0
KOD1 122105Z 11004KT 04/M14 A3026 RMK A01 T00371139  RH  026%=      5-min Rain = 0
KOD1 122106Z 11004KT 04/M14 A3026 RMK A01 T00371142  RH  026%=      5-min Rain = 0
KOD1 122107Z 09004KT 04/M14 A3026 RMK A01 T00371140  RH  026%=      5-min Rain = 0
KOD1 122108Z 12004KT 04/M14 A3026 RMK A01 T00381140  RH  026%=      5-min Rain = 0
KOD1 122109Z 14005KT 04/M14 A3026 RMK A01 T00381141  RH  026%=      5-min Rain = 0
KOD1 122110Z 14004KT 04/M14 A3026 RMK A01 T00391139  RH  026%=      5-min Rain = 0
KOD1 122111Z 14004KT 04/M14 A3026 RMK A01 T00391141  RH  025%=      5-min Rain = 0
KOD1 122112Z 10002KT 04/M14 A3026 RMK A01 T00391141  RH  026%=      5-min Rain = 0
KOD1 122113Z 10005KT 04/M14 A3026 RMK A01 T00391141  RH  025%=      5-min Rain = 0
KOD1 122114Z 11004KT 04/M14 A3026 RMK A01 T00381142  RH  025%=      5-min Rain = 0
KOD1 122115Z 12004KT 04/M14 A3026 RMK A01 T00371143  RH  025%=      5-min Rain = 0
KOD1 122116Z 13004KT 04/M14 A3026 RMK A01 T00371143  RH  026%=      5-min Rain = 0
KOD1 122117Z 15003KT 04/M14 A3026 RMK A01 T00361143  RH  026%=      5-min Rain = 0
KOD1 122118Z 14003KT 04/M14 A3026 RMK A01 T00371142  RH  026%=      5-min Rain = 0
KOD1 122119Z 16001KT 04/M14 A3026 RMK A01 T00381141  RH  026%=      5-min Rain = 0
KOD1 122120Z 16002KT 04/M14 A3026 RMK A01 T00401139  RH  026%=      5-min Rain = 0
KOD1 122121Z 11004KT 04/M14 A3026 RMK A01 T00411141  RH  025%=      5-min Rain = 0
KOD1 122122Z 09004KT 04/M14 A3026 RMK A01 T00401142  RH  025%=      5-min Rain = 0
KOD1 122123Z 07003KT 04/M14 A3026 RMK A01 T00391143  RH  025%=      5-min Rain = 0
KOD1 122124Z 06001KT 04/M14 A3026 RMK A01 T00381142  RH  026%=      5-min Rain = 0
KOD1 122125Z 06001KT 04/M14 A3026 RMK A01 T00391139  RH  026%=      5-min Rain = 0
KOD1 122126Z 07002KT 04/M14 A3026 RMK A01 T00401140  RH  025%=      5-min Rain = 0
KOD1 122127Z 09004KT 04/M14 A3026 RMK A01 T00411140  RH  025%=      5-min Rain = 0
KOD1 122128Z 10005KT 04/M14 A3026 RMK A01 T00411140  RH  025%=      5-min Rain = 0
KOD1 122129Z 13002KT 04/M14 A3026 RMK A01 T00411141  RH  025%=      5-min Rain = 0
KOD1 122130Z 13002KT 04/M14 A3026 RMK A01 T00421139  RH  025%=      5-min Rain = 0
KOD1 122131Z 11003KT 04/M14 A3026 RMK A01 T00421141  RH  025%=      5-min Rain = 0
KOD1 122132Z 11003KT 04/M14 A3026 RMK A01 T00421140  RH  025%=      5-min Rain = 0
KOD1 122133Z 11004KT 04/M14 A3026 RMK A01 T00431140  RH  025%=      5-min Rain = 0
KOD1 122134Z 10004KT 04/M14 A3026 RMK A01 T00431140  RH  025%=      5-min Rain = 0
KOD1 122135Z 09005KT 04/M14 A3026 RMK A01 T00431142  RH  025%=      5-min Rain = 0
KOD1 122136Z 09006KT 04/M14 A3026 RMK A01 T00431139  RH  025%=      5-min Rain = 0
KOD1 122137Z 08004KT 04/M14 A3026 RMK A01 T00431141  RH  025%=      5-min Rain = 0
KOD1 122138Z 08003KT 04/M14 A3026 RMK A01 T00431140  RH  025%=      5-min Rain = 0
KOD1 122139Z 11005KT 04/M14 A3026 RMK A01 T00441140  RH  025%=      5-min Rain = 0
KOD1 122140Z 10005KT 04/M14 A3026 RMK A01 T00441141  RH  025%=      5-min Rain = 0
KOD1 122141Z 11005KT 04/M14 A3026 RMK A01 T00441140  RH  025%=      5-min Rain = 0
KOD1 122142Z 07004KT 05/M14 A3026 RMK A01 T00451139  RH  025%=      5-min Rain = 0
KOD1 122143Z 07003KT 05/M14 A3026 RMK A01 T00461141  RH  024%=      5-min Rain = 0
KOD1 122144Z 09003KT 05/M14 A3026 RMK A01 T00461140  RH  024%=      5-min Rain = 0
KOD1 122145Z 11004KT 05/M14 A3026 RMK A01 T00451141  RH  024%=      5-min Rain = 0
KOD1 122146Z 10004KT 04/M14 A3026 RMK A01 T00441141  RH  025%=      5-min Rain = 0
KOD1 122147Z 13005KT 04/M14 A3026 RMK A01 T00441140  RH  025%=      5-min Rain = 0
KOD1 122148Z 12004KT 04/M14 A3026 RMK A01 T00441140  RH  025%=      5-min Rain = 0
KOD1 122149Z 12004KT 04/M14 A3026 RMK A01 T00441141  RH  025%=      5-min Rain = 0
KOD1 122150Z 12004KT 04/M14 A3026 RMK A01 T00431141  RH  025%=      5-min Rain = 0
KOD1 122151Z 11005KT 04/M14 A3026 RMK A01 T00431140  RH  025%=      5-min Rain = 0
KOD1 122152Z 11005KT 04/M14 A3027 RMK A01 T00441140  RH  025%=      5-min Rain = 0
KOD1 122153Z 12004KT 04/M14 A3027 RMK A01 T00441140  RH  025%=      5-min Rain = 0
KOD1 122154Z 11005KT 04/M14 A3027 RMK A01 T00431141  RH  025%=      5-min Rain = 0
KOD1 122155Z 11003KT 04/M14 A3027 RMK A01 T00431141  RH  025%=      5-min Rain = 0
KOD1 122156Z 10005KT 04/M14 A3027 RMK A01 T00431139  RH  025%=      5-min Rain = 0
KOD1 122157Z 10006KT 04/M14 A3027 RMK A01 T00441140  RH  025%=      5-min Rain = 0
KOD1 122158Z 09007KT 04/M14 A3027 RMK A01 T00441139  RH  025%=      5-min Rain = 0
KOD1 122159Z 10005KT 04/M14 A3027 RMK A01 T00441140  RH  025%=      5-min Rain = 0
KOD1 122200Z 09006KT 04/M14 A3027 RMK A01 T00441140  RH  025%=      5-min Rain = 0
KOD1 122201Z 09004KT 04/M14 A3027 RMK A01 T00431139  RH  025%=      5-min Rain = 0
KOD1 122202Z 09003KT 04/M14 A3027 RMK A01 T00441139  RH  025%=      5-min Rain = 0
KOD1 122203Z 08003KT 04/M14 A3027 RMK A01 T00441140  RH  025%=      5-min Rain = 0
KOD1 122204Z 08003KT 04/M14 A3027 RMK A01 T00441139  RH  025%=      5-min Rain = 0
KOD1 122205Z 09004KT 04/M14 A3027 RMK A01 T00441139  RH  025%=      5-min Rain = 0
KOD1 122206Z 09006KT 05/M14 A3027 RMK A01 T00451138  RH  025%=      5-min Rain = 0
KOD1 122207Z 09006KT 05/M14 A3027 RMK A01 T00461139  RH  025%=      5-min Rain = 0
KOD1 122208Z 10005KT 05/M14 A3027 RMK A01 T00451140  RH  025%=      5-min Rain = 0
KOD1 122209Z 11006KT 05/M14 A3027 RMK A01 T00451139  RH  025%=      5-min Rain = 0
KOD1 122210Z 09006KT 04/M14 A3027 RMK A01 T00441139  RH  025%=      5-min Rain = 0
KOD1 122211Z 09005KT 04/M14 A3027 RMK A01 T00431140  RH  025%=      5-min Rain = 0
KOD1 122212Z 08004KT 04/M14 A3027 RMK A01 T00431138  RH  025%=      5-min Rain = 0
KOD1 122213Z 11003KT 05/M14 A3027 RMK A01 T00451137  RH  025%=      5-min Rain = 0
KOD1 122214Z 10006KT 05/M14 A3027 RMK A01 T00461139  RH  025%=      5-min Rain = 0
KOD1 122215Z 08007KT 05/M14 A3027 RMK A01 T00451140  RH  025%=      5-min Rain = 0
KOD1 122216Z 06006KT 05/M14 A3027 RMK A01 T00451140  RH  025%=      5-min Rain = 0
KOD1 122217Z 06006KT 04/M14 A3027 RMK A01 T00441140  RH  025%=      5-min Rain = 0
KOD1 122218Z 06005KT 04/M14 A3027 RMK A01 T00441140  RH  025%=      5-min Rain = 0
KOD1 122219Z 06004KT 04/M14 A3027 RMK A01 T00431140  RH  025%=      5-min Rain = 0
KOD1 122220Z 06003KT 04/M14 A3028 RMK A01 T00421140  RH  025%=      5-min Rain = 0
KOD1 122221Z 06004KT 04/M14 A3028 RMK A01 T00421139  RH  025%=      5-min Rain = 0
KOD1 122222Z 08007KT 04/M14 A3028 RMK A01 T00431139  RH  025%=      5-min Rain = 0
KOD1 122223Z 07007KT 04/M14 A3028 RMK A01 T00431139  RH  025%=      5-min Rain = 0
KOD1 122224Z 07005KT 04/M14 A3028 RMK A01 T00431138  RH  025%=      5-min Rain = 0
KOD1 122225Z 08004KT 04/M14 A3028 RMK A01 T00421139  RH  025%=      5-min Rain = 0
KOD1 122226Z 06005KT 04/M14 A3028 RMK A01 T00421139  RH  026%=      5-min Rain = 0
KOD1 122227Z 05005KT 04/M14 A3028 RMK A01 T00421139  RH  025%=      5-min Rain = 0
KOD1 122228Z 09005KT 04/M14 A3028 RMK A01 T00411138  RH  026%=      5-min Rain = 0
KOD1 122229Z 07004KT 04/M14 A3028 RMK A01 T00411138  RH  026%=      5-min Rain = 0
KOD1 122230Z 07006KT 04/M14 A3028 RMK A01 T00411138  RH  026%=      5-min Rain = 0
KOD1 122231Z 08005KT 04/M14 A3028 RMK A01 T00401138  RH  026%=      5-min Rain = 0
KOD1 122232Z 09006KT 04/M14 A3028 RMK A01 T00401137  RH  026%=      5-min Rain = 0
KOD1 122233Z 10005KT 04/M14 A3028 RMK A01 T00401137  RH  026%=      5-min Rain = 0
KOD1 122234Z 09006KT 04/M14 A3028 RMK A01 T00401137  RH  026%=      5-min Rain = 0
KOD1 122235Z 08005KT 04/M14 A3028 RMK A01 T00401136  RH  026%=      5-min Rain = 0
KOD1 122236Z 08004KT 04/M14 A3028 RMK A01 T00401136  RH  027%=      5-min Rain = 0
KOD1 122237Z 07004KT 04/M14 A3028 RMK A01 T00401135  RH  026%=      5-min Rain = 0
KOD1 122238Z 08005KT 04/M14 A3028 RMK A01 T00401135  RH  026%=      5-min Rain = 0
KOD1 122239Z 08005KT 04/M14 A3028 RMK A01 T00411135  RH  027%=      5-min Rain = 0
KOD1 122240Z 06006KT 04/M13 A3029 RMK A01 T00411134  RH  027%=      5-min Rain = 0
KOD1 122241Z 06006KT 04/M14 A3029 RMK A01 T00411135  RH  026%=      5-min Rain = 0
KOD1 122242Z 07006KT 04/M14 A3029 RMK A01 T00401135  RH  027%=      5-min Rain = 0
KOD1 122243Z 06006KT 04/M14 A3029 RMK A01 T00391135  RH  027%=      5-min Rain = 0
KOD1 122244Z 06005KT 04/M14 A3029 RMK A01 T00391135  RH  027%=      5-min Rain = 0
KOD1 122245Z 06004KT 04/M14 A3029 RMK A01 T00391135  RH  027%=      5-min Rain = 0
KOD1 122246Z 07004KT 04/M14 A3029 RMK A01 T00381135  RH  027%=      5-min Rain = 0
KOD1 122247Z 06006KT 04/M14 A3029 RMK A01 T00381135  RH  027%=      5-min Rain = 0
KOD1 122248Z 07006KT 04/M14 A3029 RMK A01 T00381135  RH  027%=      5-min Rain = 0
KOD1 122249Z 05005KT 04/M14 A3029 RMK A01 T00381135  RH  027%=      5-min Rain = 0
KOD1 122250Z 06005KT 04/M14 A3029 RMK A01 T00381135  RH  027%=      5-min Rain = 0
KOD1 122251Z 06005KT 04/M14 A3029 RMK A01 T00371135  RH  027%=      5-min Rain = 0
KOD1 122252Z 06006KT 04/M13 A3029 RMK A01 T00371134  RH  027%=      5-min Rain = 0
KOD1 122253Z 06007KT 04/M13 A3029 RMK A01 T00371134  RH  027%=      5-min Rain = 0
KOD1 122254Z 06007KT 04/M13 A3029 RMK A01 T00381134  RH  027%=      5-min Rain = 0
KOD1 122255Z 06006KT 04/M13 A3029 RMK A01 T00381134  RH  027%=      5-min Rain = 0
KOD1 122256Z 06007KT 04/M13 A3029 RMK A01 T00391134  RH  027%=      5-min Rain = 0
KOD1 122257Z 06007KT 04/M14 A3029 RMK A01 T00391135  RH  027%=      5-min Rain = 0
KOD1 122258Z 05007KT 04/M14 A3029 RMK A01 T00381135  RH  027%=      5-min Rain = 0
KOD1 122259Z 06006KT 04/M14 A3029 RMK A01 T00381135  RH  027%=      5-min Rain = 0
KOD1 122300Z 05004KT 04/M14 A3029 RMK A01 T00371135  RH  027%=      5-min Rain = 0
KOD1 122301Z 05004KT 04/M14 A3029 RMK A01 T00381135  RH  027%=      5-min Rain = 0
KOD1 122302Z 06005KT 04/M14 A3029 RMK A01 T00381135  RH  027%=      5-min Rain = 0
KOD1 122303Z 06006KT 04/M14 A3029 RMK A01 T00381135  RH  027%=      5-min Rain = 0
KOD1 122304Z 06006KT 04/M14 A3029 RMK A01 T00381135  RH  027%=      5-min Rain = 0
KOD1 122305Z 07004KT 04/M13 A3029 RMK A01 T00381134  RH  027%=      5-min Rain = 0
KOD1 122306Z 07005KT 04/M14 A3029 RMK A01 T00381135  RH  027%=      5-min Rain = 0
KOD1 122307Z 07004KT 04/M14 A3029 RMK A01 T00381135  RH  027%=      5-min Rain = 0
KOD1 122308Z 07004KT 04/M14 A3029 RMK A01 T00371135  RH  027%=      5-min Rain = 0
KOD1 122309Z 06005KT 04/M14 A3029 RMK A01 T00371136  RH  027%=      5-min Rain = 0
KOD1 122310Z 06006KT 04/M14 A3029 RMK A01 T00361136  RH  027%=      5-min Rain = 0
KOD1 122311Z 06007KT 04/M14 A3029 RMK A01 T00351136  RH  027%=      5-min Rain = 0
KOD1 122312Z 06006KT 03/M14 A3029 RMK A01 T00341136  RH  028%=      5-min Rain = 0
KOD1 122313Z 05006KT 03/M14 A3029 RMK A01 T00331136  RH  028%=      5-min Rain = 0
KOD1 122314Z 06006KT 03/M14 A3029 RMK A01 T00321136  RH  028%=      5-min Rain = 0
KOD1 122315Z 06006KT 03/M14 A3029 RMK A01 T00311136  RH  028%=      5-min Rain = 0
KOD1 122316Z 06005KT 03/M14 A3029 RMK A01 T00301136  RH  028%=      5-min Rain = 0
KOD1 122317Z 06004KT 03/M14 A303 RMK A01 T00291136  RH  028%=      5-min Rain = 0
KOD1 122318Z 06005KT 03/M14 A303 RMK A01 T00291136  RH  029%=      5-min Rain = 0
KOD1 122319Z 06005KT 03/M14 A303 RMK A01 T00291136  RH  029%=      5-min Rain = 0
KOD1 122320Z 06005KT 03/M14 A303 RMK A01 T00291136  RH  029%=      5-min Rain = 0
KOD1 122321Z 06005KT 03/M14 A303 RMK A01 T00291136  RH  029%=      5-min Rain = 0
KOD1 122322Z 06005KT 03/M14 A303 RMK A01 T00281136  RH  029%=      5-min Rain = 0
KOD1 122323Z 06005KT 03/M14 A303 RMK A01 T00281136  RH  029%=      5-min Rain = 0
KOD1 122324Z 06005KT 03/M14 A303 RMK A01 T00271136  RH  029%=      5-min Rain = 0
KOD1 122325Z 06004KT 03/M14 A303 RMK A01 T00271136  RH  029%=      5-min Rain = 0
KOD1 122326Z 06005KT 03/M14 A303 RMK A01 T00271137  RH  029%=      5-min Rain = 0
KOD1 122327Z 06005KT 03/M14 A303 RMK A01 T00261137  RH  029%=      5-min Rain = 0
KOD1 122328Z 06005KT 03/M14 A303 RMK A01 T00261137  RH  029%=      5-min Rain = 0
KOD1 122329Z 06005KT 03/M14 A303 RMK A01 T00251137  RH  029%=      5-min Rain = 0
KOD1 122330Z 06005KT 02/M14 A303 RMK A01 T00241137  RH  029%=      5-min Rain = 0
KOD1 122331Z 06004KT 02/M14 A303 RMK A01 T00231137  RH  030%=      5-min Rain = 0
KOD1 122332Z 07004KT 02/M14 A303 RMK A01 T00221137  RH  030%=      5-min Rain = 0
KOD1 122333Z 06004KT 02/M14 A303 RMK A01 T00221137  RH  030%=      5-min Rain = 0
KOD1 122334Z 07004KT 02/M14 A303 RMK A01 T00211137  RH  030%=      5-min Rain = 0
KOD1 122335Z 07003KT 02/M14 A303 RMK A01 T00201137  RH  030%=      5-min Rain = 0
KOD1 122336Z 07003KT 02/M14 A303 RMK A01 T00201138  RH  030%=      5-min Rain = 0
KOD1 122337Z 07003KT 02/M14 A303 RMK A01 T00191138  RH  030%=      5-min Rain = 0
KOD1 122338Z 08004KT 02/M14 A303 RMK A01 T00181138  RH  030%=      5-min Rain = 0
KOD1 122339Z 08004KT 02/M14 A303 RMK A01 T00171138  RH  031%=      5-min Rain = 0
KOD1 122340Z 07004KT 02/M14 A303 RMK A01 T00171138  RH  031%=      5-min Rain = 0
KOD1 122341Z 07004KT 02/M14 A303 RMK A01 T00161138  RH  031%=      5-min Rain = 0
KOD1 122342Z 08004KT 02/M14 A303 RMK A01 T00171137  RH  031%=      5-min Rain = 0
KOD1 122343Z 08004KT 02/M14 A303 RMK A01 T00171137  RH  031%=      5-min Rain = 0
KOD1 122344Z 08004KT 02/M14 A303 RMK A01 T00171138  RH  031%=      5-min Rain = 0
KOD1 122345Z 08004KT 02/M14 A303 RMK A01 T00171137  RH  031%=      5-min Rain = 0
KOD1 122346Z 08004KT 02/M14 A303 RMK A01 T00171136  RH  031%=      5-min Rain = 0
KOD1 122347Z 08004KT 02/M14 A3031 RMK A01 T00171138  RH  031%=      5-min Rain = 0
KOD1 122348Z 07005KT 02/M14 A3031 RMK A01 T00171137  RH  031%=      5-min Rain = 0
KOD1 122349Z 08004KT 02/M14 A3031 RMK A01 T00171137  RH  031%=      5-min Rain = 0
KOD1 122350Z 08004KT 02/M14 A3031 RMK A01 T00171137  RH  031%=      5-min Rain = 0
KOD1 122351Z 08004KT 02/M14 A3031 RMK A01 T00161137  RH  031%=      5-min Rain = 0
KOD1 122352Z 08004KT 02/M14 A3031 RMK A01 T00161138  RH  031%=      5-min Rain = 0
KOD1 122353Z 08004KT 02/M14 A3031 RMK A01 T00161137  RH  031%=      5-min Rain = 0
KOD1 122354Z 08004KT 02/M14 A3031 RMK A01 T00151137  RH  031%=      5-min Rain = 0
KOD1 122355Z 08004KT 02/M14 A3031 RMK A01 T00151136  RH  031%=      5-min Rain = 0
KOD1 122356Z 08005KT 02/M14 A3031 RMK A01 T00151137  RH  031%=      5-min Rain = 0
KOD1 122357Z 08005KT 02/M14 A3031 RMK A01 T00151137  RH  031%=      5-min Rain = 0
KOD1 122358Z 08005KT 01/M14 A3031 RMK A01 T00141137  RH  032%=      5-min Rain = 0
KOD1 122359Z 08005KT 01/M14 A3031 RMK A01 T00141137  RH  032%=      5-min Rain = 0
KOD1 130000Z 07005KT 01/M14 A3031 RMK A01 T00131137  RH  032%=      5-min Rain = 0
KOD1 130001Z 07005KT 01/M14 A3031 RMK A01 T00131136  RH  032%=      5-min Rain = 0
KOD1 130002Z 08005KT 01/M14 A3031 RMK A01 T00131137  RH  032%=      5-min Rain = 0
KOD1 130003Z 07005KT 01/M14 A3031 RMK A01 T00131136  RH  032%=      5-min Rain = 0
KOD1 130004Z 08005KT 01/M14 A3031 RMK A01 T00131136  RH  032%=      5-min Rain = 0
KOD1 130005Z 08005KT 01/M14 A3031 RMK A01 T00131136  RH  032%=      5-min Rain = 0
KOD1 130006Z 08005KT 01/M14 A3031 RMK A01 T00121136  RH  032%=      5-min Rain = 0
KOD1 130007Z 08005KT 01/M14 A3032 RMK A01 T00111136  RH  032%=      5-min Rain = 0
KOD1 130008Z 08005KT 01/M14 A3032 RMK A01 T00101136  RH  033%=      5-min Rain = 0
KOD1 130009Z 08005KT 01/M14 A3032 RMK A01 T00101136  RH  033%=      5-min Rain = 0
KOD1 130010Z 08005KT 01/M14 A3032 RMK A01 T00091136  RH  033%=      5-min Rain = 0
KOD1 130011Z 08005KT 01/M14 A3032 RMK A01 T00081136  RH  033%=      5-min Rain = 0
KOD1 130012Z 08005KT 01/M14 A3032 RMK A01 T00071136  RH  033%=      5-min Rain = 0
KOD1 130013Z 08005KT 01/M14 A3032 RMK A01 T00071135  RH  034%=      5-min Rain = 0
KOD1 130014Z 09005KT 01/M14 A3032 RMK A01 T00061135  RH  034%=      5-min Rain = 0
KOD1 130015Z 08005KT 01/M14 A3032 RMK A01 T00061135  RH  034%=      5-min Rain = 0
KOD1 130016Z 08005KT 01/M14 A3032 RMK A01 T00051136  RH  034%=      5-min Rain = 0
KOD1 130017Z 09005KT 00/M14 A3032 RMK A01 T00041135  RH  034%=      5-min Rain = 0
KOD1 130018Z 09005KT 00/M14 A3032 RMK A01 T00041135  RH  034%=      5-min Rain = 0
KOD1 130019Z 09005KT 00/M14 A3032 RMK A01 T00031136  RH  035%=      5-min Rain = 0
KOD1 130020Z 09006KT 00/M14 A3032 RMK A01 T00021135  RH  035%=      5-min Rain = 0
KOD1 130021Z 09006KT 00/M14 A3032 RMK A01 T00011135  RH  035%=      5-min Rain = 0
KOD1 130022Z 09006KT 00/14 A3032 RMK A01 T00000-135  RH  035%=      5-min Rain = 0
KOD1 130023Z 09006KT M00/M14 A3032 RMK A01 T10011135  RH  036%=      5-min Rain = 0
KOD1 130024Z 09006KT M00/M14 A3032 RMK A01 T10011135  RH  036%=      5-min Rain = 0
KOD1 130025Z 09006KT M00/M14 A3032 RMK A01 T10021135  RH  036%=      5-min Rain = 0
KOD1 130026Z 09006KT M00/M14 A3032 RMK A01 T10021135  RH  036%=      5-min Rain = 0
KOD1 130027Z 09006KT M00/M13 A3032 RMK A01 T10031134  RH  036%=      5-min Rain = 0
KOD1 130028Z 09005KT M00/M13 A3032 RMK A01 T10041134  RH  037%=      5-min Rain = 0
KOD1 130029Z 09005KT M00/M13 A3032 RMK A01 T10041134  RH  037%=      5-min Rain = 0
KOD1 130030Z 09006KT M00/M13 A3032 RMK A01 T10041134  RH  037%=      5-min Rain = 0
KOD1 130031Z 08005KT M01/M13 A3032 RMK A01 T10051134  RH  037%=      5-min Rain = 0
KOD1 130032Z 08005KT M01/M13 A3032 RMK A01 T10051134  RH  037%=      5-min Rain = 0
KOD1 130033Z 09005KT M01/M13 A3032 RMK A01 T10061134  RH  037%=      5-min Rain = 0
KOD1 130034Z 09005KT M01/M13 A3032 RMK A01 T10061133  RH  038%=      5-min Rain = 0
KOD1 130035Z 09006KT M01/M13 A3032 RMK A01 T10061133  RH  038%=      5-min Rain = 0
KOD1 130036Z 09006KT M01/M13 A3032 RMK A01 T10061133  RH  038%=      5-min Rain = 0
KOD1 130037Z 09006KT M01/M13 A3032 RMK A01 T10061133  RH  038%=      5-min Rain = 0
KOD1 130038Z 09005KT M01/M13 A3033 RMK A01 T10061133  RH  038%=      5-min Rain = 0
KOD1 130039Z 09005KT M01/M13 A3033 RMK A01 T10071132  RH  038%=      5-min Rain = 0
KOD1 130040Z 08005KT M01/M13 A3033 RMK A01 T10071132  RH  038%=      5-min Rain = 0
KOD1 130041Z 09005KT M01/M13 A3033 RMK A01 T10071132  RH  038%=      5-min Rain = 0
KOD1 130042Z 09005KT M01/M13 A3033 RMK A01 T10071132  RH  038%=      5-min Rain = 0
KOD1 130043Z 09005KT M01/M13 A3033 RMK A01 T10071132  RH  038%=      5-min Rain = 0
KOD1 130044Z 09005KT M01/M13 A3033 RMK A01 T10071131  RH  038%=      5-min Rain = 0
KOD1 130045Z 09005KT M01/M13 A3033 RMK A01 T10071131  RH  038%=      5-min Rain = 0
KOD1 130046Z 09005KT M01/M13 A3033 RMK A01 T10071131  RH  038%=      5-min Rain = 0
KOD1 130047Z 09005KT M01/M13 A3033 RMK A01 T10071131  RH  038%=      5-min Rain = 0
KOD1 130048Z 09005KT M01/M13 A3033 RMK A01 T10071131  RH  039%=      5-min Rain = 0
KOD1 130049Z 09005KT M01/M13 A3033 RMK A01 T10071131  RH  039%=      5-min Rain = 0
KOD1 130050Z 08005KT M01/M13 A3033 RMK A01 T10071131  RH  039%=      5-min Rain = 0
KOD1 130051Z 09005KT M01/M13 A3034 RMK A01 T10081131  RH  039%=      5-min Rain = 0
KOD1 130052Z 08005KT M01/M13 A3034 RMK A01 T10081131  RH  039%=      5-min Rain = 0
KOD1 130053Z 09005KT M01/M13 A3034 RMK A01 T10091131  RH  039%=      5-min Rain = 0
KOD1 130054Z 08006KT M01/M13 A3034 RMK A01 T10091131  RH  039%=      5-min Rain = 0
KOD1 130055Z 08006KT M01/M13 A3034 RMK A01 T10091130  RH  039%=      5-min Rain = 0
KOD1 130056Z 09006KT M01/M13 A3034 RMK A01 T10091130  RH  039%=      5-min Rain = 0
KOD1 130057Z 09006KT M01/M13 A3034 RMK A01 T10091130  RH  039%=      5-min Rain = 0
KOD1 130058Z 09006KT M01/M13 A3034 RMK A01 T10091130  RH  040%=      5-min Rain = 0
KOD1 130059Z 09006KT M01/M13 A3034 RMK A01 T10101130  RH  040%=      5-min Rain = 0
KOD1 130100Z 09006KT M01/M13 A3034 RMK A01 T10101130  RH  040%=      5-min Rain = 0
KOD1 130101Z 09006KT M01/M13 A3034 RMK A01 T10101130  RH  040%=      5-min Rain = 0
KOD1 130102Z 09006KT M01/M13 A3034 RMK A01 T10101130  RH  040%=      5-min Rain = 0
KOD1 130103Z 09006KT M01/M13 A3034 RMK A01 T10101130  RH  040%=      5-min Rain = 0
KOD1 130104Z 09006KT M01/M13 A3034 RMK A01 T10111130  RH  040%=      5-min Rain = 0
KOD1 130105Z 08006KT M01/M13 A3034 RMK A01 T10111130  RH  040%=      5-min Rain = 0
KOD1 130106Z 08006KT M01/M13 A3034 RMK A01 T10121130  RH  040%=      5-min Rain = 0
KOD1 130107Z 08006KT M01/M13 A3034 RMK A01 T10121130  RH  040%=      5-min Rain = 0
KOD1 130108Z 08006KT M01/M13 A3034 RMK A01 T10111130  RH  040%=      5-min Rain = 0
KOD1 130109Z 08006KT M01/M13 A3035 RMK A01 T10111130  RH  040%=      5-min Rain = 0
KOD1 130110Z 08006KT M01/M13 A3035 RMK A01 T10111130  RH  040%=      5-min Rain = 0
KOD1 130111Z 08006KT M01/M13 A3035 RMK A01 T10111130  RH  040%=      5-min Rain = 0
KOD1 130112Z 08006KT M01/M13 A3035 RMK A01 T10101129  RH  040%=      5-min Rain = 0
KOD1 130113Z 08006KT M01/M13 A3035 RMK A01 T10101129  RH  040%=      5-min Rain = 0
KOD1 130114Z 09006KT M01/M13 A3035 RMK A01 T10101129  RH  040%=      5-min Rain = 0
KOD1 130115Z 09006KT M01/M13 A3035 RMK A01 T10111129  RH  040%=      5-min Rain = 0
KOD1 130116Z 09005KT M01/M13 A3035 RMK A01 T10111129  RH  040%=      5-min Rain = 0
KOD1 130117Z 09006KT M01/M13 A3035 RMK A01 T10111129  RH  040%=      5-min Rain = 0
KOD1 130118Z 09006KT M01/M13 A3035 RMK A01 T10111129  RH  040%=      5-min Rain = 0
KOD1 130119Z 09005KT M01/M13 A3035 RMK A01 T10121129  RH  040%=      5-min Rain = 0
KOD1 130120Z 09006KT M01/M13 A3035 RMK A01 T10121130  RH  040%=      5-min Rain = 0
KOD1 130121Z 09005KT M01/M13 A3035 RMK A01 T10131129  RH  041%=      5-min Rain = 0
KOD1 130122Z 09006KT M01/M13 A3035 RMK A01 T10131129  RH  041%=      5-min Rain = 0
KOD1 130123Z 09006KT M01/M13 A3035 RMK A01 T10141129  RH  041%=      5-min Rain = 0
KOD1 130124Z 09006KT M01/M13 A3035 RMK A01 T10141130  RH  041%=      5-min Rain = 0
KOD1 130125Z 08007KT M02/M13 A3035 RMK A01 T10151130  RH  041%=      5-min Rain = 0
KOD1 130126Z 08006KT M02/M13 A3035 RMK A01 T10161130  RH  042%=      5-min Rain = 0
KOD1 130127Z 08006KT M02/M13 A3035 RMK A01 T10161130  RH  042%=      5-min Rain = 0
KOD1 130128Z 07005KT M02/M13 A3035 RMK A01 T10161129  RH  042%=      5-min Rain = 0
KOD1 130129Z 07005KT M02/M13 A3036 RMK A01 T10161129  RH  042%=      5-min Rain = 0
KOD1 130130Z 05004KT M02/M13 A3036 RMK A01 T10171130  RH  042%=      5-min Rain = 0
KOD1 130131Z 03006KT M02/M14 A3036 RMK A01 T10191136  RH  041%=      5-min Rain = 0
KOD1 130132Z 04006KT M02/M14 A3036 RMK A01 T10231135  RH  042%=      5-min Rain = 0
KOD1 130133Z 04006KT M03/M13 A3036 RMK A01 T10261133  RH  044%=      5-min Rain = 0
KOD1 130134Z 05006KT M03/M13 A3036 RMK A01 T10281134  RH  044%=      5-min Rain = 0
KOD1 130135Z 05006KT M03/M14 A3036 RMK A01 T10311135  RH  044%=      5-min Rain = 0
KOD1 130136Z 05006KT M03/M14 A3036 RMK A01 T10331136  RH  045%=      5-min Rain = 0
KOD1 130137Z 05006KT M04/M14 A3036 RMK A01 T10361136  RH  046%=      5-min Rain = 0
KOD1 130138Z 05006KT M04/M14 A3036 RMK A01 T10371136  RH  046%=      5-min Rain = 0
KOD1 130139Z 04005KT M04/M14 A3036 RMK A01 T10391135  RH  047%=      5-min Rain = 0
KOD1 130140Z 04005KT M04/M14 A3036 RMK A01 T10401135  RH  048%=      5-min Rain = 0
KOD1 130141Z 04005KT M04/M13 A3036 RMK A01 T10411134  RH  048%=      5-min Rain = 0
KOD1 130142Z 04005KT M04/M13 A3036 RMK A01 T10411134  RH  048%=      5-min Rain = 0
KOD1 130143Z 04005KT M04/M13 A3036 RMK A01 T10411134  RH  048%=      5-min Rain = 0
KOD1 130144Z 04005KT M04/M13 A3036 RMK A01 T10421134  RH  049%=      5-min Rain = 0
KOD1 130145Z 04005KT M04/M13 A3036 RMK A01 T10421134  RH  049%=      5-min Rain = 0
KOD1 130146Z 04005KT M04/M13 A3036 RMK A01 T10421134  RH  049%=      5-min Rain = 0
KOD1 130147Z 05005KT M04/M13 A3036 RMK A01 T10421133  RH  049%=      5-min Rain = 0
KOD1 130148Z 05005KT M04/M13 A3036 RMK A01 T10421133  RH  049%=      5-min Rain = 0
KOD1 130149Z 06005KT M04/M13 A3036 RMK A01 T10421131  RH  050%=      5-min Rain = 0
KOD1 130150Z 06005KT M04/M13 A3036 RMK A01 T10401128  RH  050%=      5-min Rain = 0
KOD1 130151Z 06005KT M04/M13 A3036 RMK A01 T10391129  RH  050%=      5-min Rain = 0
KOD1 130152Z 07005KT M04/M13 A3036 RMK A01 T10371128  RH  049%=      5-min Rain = 0
KOD1 130153Z 07005KT M04/M13 A3036 RMK A01 T10361128  RH  049%=      5-min Rain = 0
KOD1 130154Z 07005KT M04/M13 A3036 RMK A01 T10351128  RH  048%=      5-min Rain = 0
KOD1 130155Z 07005KT M03/M13 A3036 RMK A01 T10341128  RH  048%=      5-min Rain = 0
KOD1 130156Z 07005KT M03/M13 A3037 RMK A01 T10331128  RH  048%=      5-min Rain = 0
KOD1 130157Z 07005KT M03/M13 A3037 RMK A01 T10331128  RH  048%=      5-min Rain = 0
KOD1 130158Z 07005KT M03/M13 A3037 RMK A01 T10321127  RH  048%=      5-min Rain = 0
KOD1 130159Z 07006KT M03/M13 A3037 RMK A01 T10311127  RH  047%=      5-min Rain = 0
KOD1 130200Z 07006KT M03/M13 A3037 RMK A01 T10301129  RH  046%=      5-min Rain = 0
KOD1 130201Z 07006KT M03/M13 A3037 RMK A01 T10291127  RH  047%=      5-min Rain = 0
KOD1 130202Z 07005KT M03/M13 A3037 RMK A01 T10291127  RH  047%=      5-min Rain = 0
KOD1 130203Z 07006KT M03/M13 A3037 RMK A01 T10291129  RH  046%=      5-min Rain = 0
KOD1 130204Z 07005KT M03/M13 A3037 RMK A01 T10281126  RH  047%=      5-min Rain = 0
KOD1 130205Z 07005KT M03/M13 A3037 RMK A01 T10271126  RH  046%=      5-min Rain = 0
KOD1 130206Z 07006KT M03/M13 A3037 RMK A01 T10261126  RH  046%=      5-min Rain = 0
KOD1 130207Z 07005KT M03/M13 A3037 RMK A01 T10251126  RH  046%=      5-min Rain = 0
KOD1 130208Z 08006KT M02/M13 A3037 RMK A01 T10241126  RH  045%=      5-min Rain = 0
KOD1 130209Z 08006KT M02/M13 A3037 RMK A01 T10231125  RH  045%=      5-min Rain = 0
KOD1 130210Z 07006KT M02/M13 A3037 RMK A01 T10221125  RH  045%=      5-min Rain = 0
KOD1 130211Z 07005KT M02/M13 A3037 RMK A01 T10211126  RH  045%=      5-min Rain = 0
KOD1 130212Z 07006KT M02/M13 A3037 RMK A01 T10211126  RH  044%=      5-min Rain = 0
KOD1 130213Z 07006KT M02/M13 A3037 RMK A01 T10211126  RH  044%=      5-min Rain = 0
KOD1 130214Z 07005KT M02/M13 A3037 RMK A01 T10211126  RH  044%=      5-min Rain = 0
KOD1 130215Z 07005KT M02/M13 A3037 RMK A01 T10201126  RH  044%=      5-min Rain = 0
KOD1 130216Z 07005KT M02/M13 A3038 RMK A01 T10201127  RH  044%=      5-min Rain = 0
KOD1 130217Z 07005KT M02/M13 A3038 RMK A01 T10201127  RH  044%=      5-min Rain = 0
KOD1 130218Z 06006KT M02/M13 A3038 RMK A01 T10211127  RH  044%=      5-min Rain = 0
KOD1 130219Z 06005KT M02/M13 A3038 RMK A01 T10221128  RH  044%=      5-min Rain = 0
KOD1 130220Z 06005KT M02/M13 A3038 RMK A01 T10241130  RH  044%=      5-min Rain = 0
KOD1 130221Z 06005KT M03/M13 A3038 RMK A01 T10271131  RH  044%=      5-min Rain = 0
KOD1 130222Z 06005KT M03/M13 A3038 RMK A01 T10301132  RH  045%=      5-min Rain = 0
KOD1 130223Z 06005KT M03/M13 A3038 RMK A01 T10321132  RH  046%=      5-min Rain = 0
KOD1 130224Z 06005KT M04/M13 A3038 RMK A01 T10351132  RH  047%=      5-min Rain = 0
KOD1 130225Z 06005KT M04/M13 A3038 RMK A01 T10371131  RH  048%=      5-min Rain = 0
KOD1 130226Z 06006KT M04/M13 A3038 RMK A01 T10381131  RH  049%=      5-min Rain = 0
KOD1 130227Z 06006KT M04/M13 A3038 RMK A01 T10401133  RH  049%=      5-min Rain = 0
KOD1 130228Z 06006KT M04/M13 A3038 RMK A01 T10421134  RH  049%=      5-min Rain = 0
KOD1 130229Z 07006KT M05/M13 A3038 RMK A01 T10451134  RH  050%=      5-min Rain = 0
KOD1 130230Z 07006KT M05/M13 A3038 RMK A01 T10461133  RH  051%=      5-min Rain = 0
KOD1 130231Z 07005KT M05/M13 A3038 RMK A01 T10481134  RH  051%=      5-min Rain = 0
KOD1 130232Z 07005KT M05/M13 A3039 RMK A01 T10491134  RH  051%=      5-min Rain = 0
KOD1 130233Z 06005KT M05/M13 A3039 RMK A01 T10491133  RH  052%=      5-min Rain = 0
KOD1 130234Z 06005KT M05/M13 A3039 RMK A01 T10501133  RH  052%=      5-min Rain = 0
KOD1 130235Z 06006KT M05/M13 A3039 RMK A01 T10501131  RH  053%=      5-min Rain = 0
KOD1 130236Z 06006KT M05/M13 A3039 RMK A01 T10491131  RH  053%=      5-min Rain = 0
KOD1 130237Z 06006KT M05/M13 A3039 RMK A01 T10491132  RH  053%=      5-min Rain = 0
KOD1 130238Z 06006KT M05/M13 A3039 RMK A01 T10501132  RH  052%=      5-min Rain = 0
KOD1 130239Z 06006KT M05/M13 A3039 RMK A01 T10511134  RH  052%=      5-min Rain = 0
KOD1 130240Z 05006KT M05/M13 A3039 RMK A01 T10521134  RH  052%=      5-min Rain = 0
KOD1 130241Z 05006KT M05/M13 A3039 RMK A01 T10531134  RH  053%=      5-min Rain = 0
KOD1 130242Z 05006KT M05/M13 A3039 RMK A01 T10531134  RH  053%=      5-min Rain = 0
KOD1 130243Z 05006KT M05/M13 A3039 RMK A01 T10541133  RH  054%=      5-min Rain = 0
KOD1 130244Z 05006KT M05/M13 A3039 RMK A01 T10541133  RH  054%=      5-min Rain = 0
KOD1 130245Z 05006KT M06/M13 A3039 RMK A01 T10551134  RH  054%=      5-min Rain = 0
KOD1 130246Z 05006KT M06/M14 A3039 RMK A01 T10551135  RH  054%=      5-min Rain = 0
KOD1 130247Z 05005KT M06/M14 A3039 RMK A01 T10561135  RH  054%=      5-min Rain = 0
KOD1 130248Z 05005KT M06/M14 A3039 RMK A01 T10571135  RH  054%=      5-min Rain = 0
KOD1 130249Z 06005KT M06/M13 A3039 RMK A01 T10571134  RH  055%=      5-min Rain = 0
KOD1 130250Z 06006KT M06/M13 A3039 RMK A01 T10571133  RH  055%=      5-min Rain = 0
KOD1 130251Z 06005KT M06/M13 A3039 RMK A01 T10561131  RH  056%=      5-min Rain = 0
KOD1 130252Z 07005KT M05/M13 A3039 RMK A01 T10541130  RH  055%=      5-min Rain = 0
KOD1 130253Z 07005KT M05/M13 A3039 RMK A01 T10531130  RH  055%=      5-min Rain = 0
KOD1 130254Z 07005KT M05/M13 A3039 RMK A01 T10511129  RH  054%=      5-min Rain = 0
KOD1 130255Z 07005KT M05/M13 A3039 RMK A01 T10491127  RH  054%=      5-min Rain = 0
KOD1 130256Z 07006KT M05/M13 A3039 RMK A01 T10451125  RH  054%=      5-min Rain = 0
KOD1 130257Z 07005KT M04/M13 A3039 RMK A01 T10421125  RH  052%=      5-min Rain = 0
KOD1 130258Z 07005KT M04/M13 A3039 RMK A01 T10391125  RH  052%=      5-min Rain = 0
KOD1 130259Z 07005KT M04/M12 A3039 RMK A01 T10371124  RH  051%=      5-min Rain = 0
KOD1 130300Z 07005KT M04/M12 A3039 RMK A01 T10351124  RH  050%=      5-min Rain = 0
KOD1 130301Z 07005KT M03/M13 A3039 RMK A01 T10331125  RH  049%=      5-min Rain = 0
KOD1 130302Z 07005KT M03/M13 A3039 RMK A01 T10321125  RH  049%=      5-min Rain = 0
KOD1 130303Z 07005KT M03/M13 A3039 RMK A01 T10311126  RH  048%=      5-min Rain = 0
KOD1 130304Z 07004KT M03/M13 A304 RMK A01 T10311126  RH  048%=      5-min Rain = 0
KOD1 130305Z 06005KT M03/M13 A304 RMK A01 T10311126  RH  048%=      5-min Rain = 0
KOD1 130306Z 06005KT M03/M13 A304 RMK A01 T10311127  RH  047%=      5-min Rain = 0
KOD1 130307Z 06005KT M03/M13 A304 RMK A01 T10321129  RH  047%=      5-min Rain = 0
KOD1 130308Z 06005KT M03/M13 A304 RMK A01 T10341129  RH  048%=      5-min Rain = 0
KOD1 130309Z 06005KT M04/M13 A304 RMK A01 T10361129  RH  048%=      5-min Rain = 0
KOD1 130310Z 06006KT M04/M13 A304 RMK A01 T10391130  RH  049%=      5-min Rain = 0
KOD1 130311Z 06006KT M04/M13 A304 RMK A01 T10411131  RH  049%=      5-min Rain = 0
KOD1 130312Z 06005KT M04/M13 A304 RMK A01 T10441132  RH  050%=      5-min Rain = 0
KOD1 130313Z 06005KT M05/M13 A3041 RMK A01 T10461133  RH  051%=      5-min Rain = 0
KOD1 130314Z 06005KT M05/M13 A3041 RMK A01 T10481133  RH  051%=      5-min Rain = 0
KOD1 130315Z 06005KT M05/M13 A3041 RMK A01 T10491133  RH  052%=      5-min Rain = 0
KOD1 130316Z 07005KT M05/M13 A3041 RMK A01 T10501132  RH  053%=      5-min Rain = 0
KOD1 130317Z 07005KT M05/M13 A3041 RMK A01 T10511132  RH  053%=      5-min Rain = 0
KOD1 130318Z 07005KT M05/M13 A3041 RMK A01 T10521132  RH  053%=      5-min Rain = 0
KOD1 130319Z 06006KT M05/M13 A3041 RMK A01 T10521132  RH  054%=      5-min Rain = 0
KOD1 130320Z 06006KT M05/M13 A3041 RMK A01 T10531132  RH  054%=      5-min Rain = 0
KOD1 130321Z 06006KT M05/M13 A3041 RMK A01 T10541132  RH  054%=      5-min Rain = 0
KOD1 130322Z 06005KT M05/M13 A3041 RMK A01 T10541132  RH  055%=      5-min Rain = 0
KOD1 130323Z 06005KT M06/M13 A3041 RMK A01 T10551131  RH  055%=      5-min Rain = 0
KOD1 130324Z 05005KT M06/M13 A3042 RMK A01 T10551132  RH  055%=      5-min Rain = 0
KOD1 130325Z 05005KT M06/M13 A3042 RMK A01 T10551131  RH  055%=      5-min Rain = 0
KOD1 130326Z 05005KT M06/M13 A3042 RMK A01 T10551130  RH  055%=      5-min Rain = 0
KOD1 130327Z 05006KT M06/M13 A3042 RMK A01 T10551131  RH  055%=      5-min Rain = 0
KOD1 130328Z 06006KT M06/M13 A3042 RMK A01 T10551131  RH  055%=      5-min Rain = 0
KOD1 130329Z 06006KT M06/M13 A3042 RMK A01 T10551132  RH  055%=      5-min Rain = 0
KOD1 130330Z 05006KT M06/M13 A3042 RMK A01 T10561132  RH  055%=      5-min Rain = 0
KOD1 130331Z 05006KT M06/M13 A3042 RMK A01 T10571132  RH  055%=      5-min Rain = 0
KOD1 130332Z 05006KT M06/M13 A3042 RMK A01 T10571132  RH  056%=      5-min Rain = 0
KOD1 130333Z 05006KT M06/M13 A3042 RMK A01 T10571131  RH  056%=      5-min Rain = 0
KOD1 130334Z 05005KT M06/M13 A3042 RMK A01 T10571131  RH  056%=      5-min Rain = 0
KOD1 130335Z 05005KT M06/M13 A3043 RMK A01 T10571131  RH  056%=      5-min Rain = 0
KOD1 130336Z 05005KT M06/M13 A3043 RMK A01 T10571131  RH  056%=      5-min Rain = 0
KOD1 130337Z 05005KT M06/M13 A3043 RMK A01 T10571130  RH  056%=      5-min Rain = 0
KOD1 130338Z 05005KT M06/M13 A3043 RMK A01 T10571130  RH  057%=      5-min Rain = 0
KOD1 130339Z 05005KT M06/M13 A3043 RMK A01 T10571129  RH  057%=      5-min Rain = 0
KOD1 130340Z 05005KT M06/M13 A3043 RMK A01 T10561129  RH  057%=      5-min Rain = 0
KOD1 130341Z 04006KT M06/M13 A3043 RMK A01 T10561129  RH  056%=      5-min Rain = 0
KOD1 130342Z 04005KT M06/M13 A3043 RMK A01 T10561129  RH  056%=      5-min Rain = 0
KOD1 130343Z 03005KT M06/M13 A3043 RMK A01 T10551129  RH  056%=      5-min Rain = 0
KOD1 130344Z 03005KT M06/M13 A3043 RMK A01 T10551129  RH  056%=      5-min Rain = 0
KOD1 130345Z 03005KT M06/M13 A3043 RMK A01 T10551127  RH  057%=      5-min Rain = 0
KOD1 130346Z 02005KT M06/M13 A3043 RMK A01 T10551126  RH  057%=      5-min Rain = 0
KOD1 130347Z 02005KT M05/M13 A3044 RMK A01 T10541125  RH  057%=      5-min Rain = 0
KOD1 130348Z 02005KT M05/M12 A3044 RMK A01 T10531124  RH  057%=      5-min Rain = 0
KOD1 130349Z 02005KT M05/M12 A3044 RMK A01 T10521123  RH  057%=      5-min Rain = 0
KOD1 130350Z 02005KT M05/M12 A3044 RMK A01 T10501122  RH  057%=      5-min Rain = 0
KOD1 130351Z 02006KT M05/M12 A3044 RMK A01 T10491122  RH  057%=      5-min Rain = 0
KOD1 130352Z 02006KT M05/M12 A3044 RMK A01 T10481122  RH  056%=      5-min Rain = 0
KOD1 130353Z 02006KT M05/M12 A3044 RMK A01 T10471123  RH  055%=      5-min Rain = 0
KOD1 130354Z 02006KT M05/M12 A3044 RMK A01 T10471123  RH  055%=      5-min Rain = 0
KOD1 130355Z 03006KT M05/M12 A3043 RMK A01 T10471123  RH  055%=      5-min Rain = 0
KOD1 130356Z 03005KT M05/M12 A3043 RMK A01 T10471123  RH  055%=      5-min Rain = 0
KOD1 130357Z 03006KT M05/M12 A3043 RMK A01 T10471123  RH  055%=      5-min Rain = 0
KOD1 130358Z 03005KT M05/M12 A3044 RMK A01 T10471122  RH  056%=      5-min Rain = 0
KOD1 130359Z 03005KT M05/M12 A3044 RMK A01 T10481122  RH  056%=      5-min Rain = 0
KOD1 130400Z 03005KT M05/M12 A3044 RMK A01 T10481121  RH  056%=      5-min Rain = 0
KOD1 130401Z 03004KT M05/M12 A3044 RMK A01 T10471120  RH  057%=      5-min Rain = 0
KOD1 130402Z 03004KT M05/M12 A3044 RMK A01 T10471120  RH  057%=      5-min Rain = 0
KOD1 130403Z 03004KT M05/M12 A3044 RMK A01 T10471119  RH  057%=      5-min Rain = 0
KOD1 130404Z 03004KT M05/M12 A3044 RMK A01 T10471119  RH  057%=      5-min Rain = 0
KOD1 130405Z 03004KT M05/M12 A3044 RMK A01 T10471119  RH  057%=      5-min Rain = 0
KOD1 130406Z 03004KT M05/M12 A3044 RMK A01 T10461119  RH  057%=      5-min Rain = 0
KOD1 130407Z 03004KT M05/M12 A3044 RMK A01 T10461119  RH  057%=      5-min Rain = 0
KOD1 130408Z 03004KT M05/M12 A3044 RMK A01 T10461119  RH  057%=      5-min Rain = 0
KOD1 130409Z 02004KT M05/M12 A3044 RMK A01 T10461119  RH  057%=      5-min Rain = 0
KOD1 130410Z 02004KT M05/M12 A3044 RMK A01 T10461119  RH  057%=      5-min Rain = 0
KOD1 130411Z 02005KT M05/M12 A3044 RMK A01 T10461119  RH  057%=      5-min Rain = 0
KOD1 130412Z 02005KT M05/M12 A3044 RMK A01 T10461119  RH  057%=      5-min Rain = 0
KOD1 130413Z 02006KT M05/M12 A3044 RMK A01 T10461120  RH  056%=      5-min Rain = 0
KOD1 130414Z 02006KT M05/M12 A3045 RMK A01 T10451122  RH  055%=      5-min Rain = 0
KOD1 130415Z 02006KT M04/M12 A3045 RMK A01 T10441123  RH  054%=      5-min Rain = 0
KOD1 130416Z 02006KT M04/M12 A3045 RMK A01 T10431124  RH  053%=      5-min Rain = 0
KOD1 130417Z 02006KT M04/M12 A3045 RMK A01 T10411124  RH  053%=      5-min Rain = 0
KOD1 130418Z 02006KT M04/M13 A3044 RMK A01 T10401125  RH  052%=      5-min Rain = 0
KOD1 130419Z 02006KT M04/M13 A3044 RMK A01 T10391125  RH  051%=      5-min Rain = 0
KOD1 130420Z 03006KT M04/M13 A3045 RMK A01 T10391126  RH  051%=      5-min Rain = 0
KOD1 130421Z 02007KT M04/M13 A3045 RMK A01 T10381126  RH  051%=      5-min Rain = 0
KOD1 130422Z 02006KT M04/M13 A3045 RMK A01 T10381126  RH  050%=      5-min Rain = 0
KOD1 130423Z 03006KT M04/M13 A3045 RMK A01 T10371126  RH  050%=      5-min Rain = 0
KOD1 130424Z 03006KT M04/M13 A3045 RMK A01 T10371126  RH  050%=      5-min Rain = 0
KOD1 130425Z 03006KT M04/M13 A3045 RMK A01 T10371127  RH  050%=      5-min Rain = 0
KOD1 130426Z 02005KT M04/M13 A3045 RMK A01 T10371127  RH  050%=      5-min Rain = 0
KOD1 130427Z 02005KT M04/M13 A3045 RMK A01 T10381127  RH  050%=      5-min Rain = 0
KOD1 130428Z 02005KT M04/M13 A3045 RMK A01 T10381127  RH  050%=      5-min Rain = 0
KOD1 130429Z 02005KT M04/M13 A3045 RMK A01 T10381127  RH  050%=      5-min Rain = 0
KOD1 130430Z 01005KT M04/M13 A3045 RMK A01 T10381127  RH  050%=      5-min Rain = 0
KOD1 130431Z 01005KT M04/M13 A3046 RMK A01 T10391127  RH  050%=      5-min Rain = 0
KOD1 130432Z 01006KT M04/M13 A3046 RMK A01 T10391128  RH  050%=      5-min Rain = 0
KOD1 130433Z 01006KT M04/M13 A3046 RMK A01 T10401128  RH  050%=      5-min Rain = 0
KOD1 130434Z 01007KT M04/M13 A3046 RMK A01 T10401128  RH  051%=      5-min Rain = 0
KOD1 130435Z 01007KT M04/M13 A3046 RMK A01 T10411128  RH  051%=      5-min Rain = 0
KOD1 130436Z 01007KT M04/M13 A3046 RMK A01 T10421127  RH  051%=      5-min Rain = 0
KOD1 130437Z 01007KT M04/M13 A3046 RMK A01 T10421127  RH  052%=      5-min Rain = 0
KOD1 130438Z 01007KT M04/M13 A3046 RMK A01 T10421127  RH  052%=      5-min Rain = 0
KOD1 130439Z 01007KT M04/M13 A3046 RMK A01 T10431127  RH  052%=      5-min Rain = 0
KOD1 130440Z 01007KT M04/M13 A3046 RMK A01 T10431127  RH  052%=      5-min Rain = 0
KOD1 130441Z 01007KT M04/M13 A3046 RMK A01 T10441128  RH  052%=      5-min Rain = 0
KOD1 130442Z 01006KT M05/M13 A3046 RMK A01 T10451128  RH  052%=      5-min Rain = 0
KOD1 130443Z 00006KT M05/M13 A3046 RMK A01 T10461128  RH  053%=      5-min Rain = 0
KOD1 130444Z 00006KT M05/M13 A3046 RMK A01 T10461127  RH  053%=      5-min Rain = 0
KOD1 130445Z 00006KT M05/M13 A3046 RMK A01 T10471127  RH  053%=      5-min Rain = 0
KOD1 130446Z 00006KT M05/M13 A3046 RMK A01 T10471127  RH  054%=      5-min Rain = 0
KOD1 130447Z 00006KT M05/M13 A3046 RMK A01 T10471127  RH  054%=      5-min Rain = 0
KOD1 130448Z 00006KT M05/M13 A3046 RMK A01 T10481127  RH  054%=      5-min Rain = 0
KOD1 130449Z 36006KT M05/M13 A3046 RMK A01 T10491128  RH  054%=      5-min Rain = 0
KOD1 130450Z 35007KT M05/M13 A3046 RMK A01 T10501128  RH  054%=      5-min Rain = 0
KOD1 130451Z 35007KT M05/M13 A3046 RMK A01 T10501128  RH  054%=      5-min Rain = 0
KOD1 130452Z 35007KT M05/M13 A3046 RMK A01 T10511129  RH  054%=      5-min Rain = 0
KOD1 130453Z 35007KT M05/M13 A3046 RMK A01 T10521129  RH  054%=      5-min Rain = 0
KOD1 130454Z 35007KT M05/M13 A3046 RMK A01 T10521130  RH  054%=      5-min Rain = 0
KOD1 130455Z 35007KT M05/M13 A3047 RMK A01 T10521130  RH  054%=      5-min Rain = 0
KOD1 130456Z 35008KT M05/M13 A3047 RMK A01 T10531131  RH  054%=      5-min Rain = 0
KOD1 130457Z 36008KT M05/M13 A3047 RMK A01 T10531132  RH  054%=      5-min Rain = 0
KOD1 130458Z 36008KT M05/M13 A3047 RMK A01 T10531132  RH  054%=      5-min Rain = 0
KOD1 130459Z 00007KT M05/M13 A3047 RMK A01 T10541133  RH  054%=      5-min Rain = 0
KOD1 130500Z 36007KT M05/M13 A3047 RMK A01 T10541133  RH  054%=      5-min Rain = 0
KOD1 130501Z 36006KT M05/M13 A3046 RMK A01 T10541134  RH  054%=      5-min Rain = 0
KOD1 130502Z 36006KT M05/M13 A3047 RMK A01 T10541134  RH  054%=      5-min Rain = 0
KOD1 130503Z 00006KT M06/M13 A3047 RMK A01 T10551134  RH  054%=      5-min Rain = 0
KOD1 130504Z 00007KT M06/M13 A3047 RMK A01 T10551134  RH  054%=      5-min Rain = 0
KOD1 130505Z 00006KT M06/M14 A3047 RMK A01 T10551135  RH  053%=      5-min Rain = 0
KOD1 130506Z 00006KT M06/M14 A3047 RMK A01 T10551135  RH  053%=      5-min Rain = 0
KOD1 130507Z 36007KT M06/M14 A3047 RMK A01 T10551135  RH  053%=      5-min Rain = 0
KOD1 130508Z 36007KT M06/M14 A3047 RMK A01 T10551136  RH  053%=      5-min Rain = 0
KOD1 130509Z 35006KT M06/M14 A3047 RMK A01 T10551136  RH  053%=      5-min Rain = 0
KOD1 130510Z 35006KT M06/M14 A3047 RMK A01 T10561136  RH  053%=      5-min Rain = 0
KOD1 130511Z 35006KT M06/M14 A3047 RMK A01 T10561137  RH  053%=      5-min Rain = 0
KOD1 130512Z 35006KT M06/M14 A3047 RMK A01 T10561137  RH  053%=      5-min Rain = 0
KOD1 130513Z 36006KT M06/M14 A3047 RMK A01 T10571137  RH  053%=      5-min Rain = 0
KOD1 130514Z 35006KT M06/M14 A3047 RMK A01 T10571137  RH  053%=      5-min Rain = 0
KOD1 130515Z 35006KT M06/M14 A3047 RMK A01 T10581137  RH  053%=      5-min Rain = 0
KOD1 130516Z 35006KT M06/M14 A3047 RMK A01 T10581138  RH  053%=      5-min Rain = 0
KOD1 130517Z 35006KT M06/M14 A3047 RMK A01 T10591138  RH  054%=      5-min Rain = 0
KOD1 130518Z 35005KT M06/M14 A3047 RMK A01 T10591138  RH  054%=      5-min Rain = 0
KOD1 130519Z 35005KT M06/M14 A3048 RMK A01 T10591138  RH  054%=      5-min Rain = 0
KOD1 130520Z 34005KT M06/M14 A3048 RMK A01 T10601138  RH  054%=      5-min Rain = 0
KOD1 130521Z 34005KT M06/M14 A3048 RMK A01 T10601138  RH  054%=      5-min Rain = 0
KOD1 130522Z 34005KT M06/M14 A3048 RMK A01 T10601139  RH  054%=      5-min Rain = 0
KOD1 130523Z 34005KT M06/M14 A3048 RMK A01 T10611139  RH  054%=      5-min Rain = 0
KOD1 130524Z 34005KT M06/M14 A3048 RMK A01 T10611139  RH  054%=      5-min Rain = 0
KOD1 130525Z 34005KT M06/M14 A3048 RMK A01 T10621140  RH  054%=      5-min Rain = 0
KOD1 130526Z 34005KT M06/M14 A3048 RMK A01 T10621140  RH  054%=      5-min Rain = 0
KOD1 130527Z 34004KT M06/M14 A3048 RMK A01 T10621140  RH  054%=      5-min Rain = 0
KOD1 130528Z 34004KT M06/M14 A3048 RMK A01 T10621140  RH  054%=      5-min Rain = 0
KOD1 130529Z 34004KT M06/M14 A3048 RMK A01 T10611139  RH  054%=      5-min Rain = 0
KOD1 130530Z 34005KT M06/M14 A3048 RMK A01 T10611139  RH  054%=      5-min Rain = 0
KOD1 130531Z 34005KT M06/M14 A3048 RMK A01 T10611139  RH  054%=      5-min Rain = 0
KOD1 130532Z 34005KT M06/M14 A3048 RMK A01 T10611138  RH  054%=      5-min Rain = 0
KOD1 130533Z 34005KT M06/M14 A3048 RMK A01 T10611138  RH  054%=      5-min Rain = 0
KOD1 130534Z 35005KT M06/M14 A3048 RMK A01 T10601138  RH  054%=      5-min Rain = 0
KOD1 130535Z 35005KT M06/M14 A3048 RMK A01 T10601137  RH  054%=      5-min Rain = 0
KOD1 130536Z 35005KT M06/M14 A3048 RMK A01 T10591137  RH  054%=      5-min Rain = 0
KOD1 130537Z 35005KT M06/M14 A3048 RMK A01 T10581137  RH  054%=      5-min Rain = 0
KOD1 130538Z 35005KT M06/M14 A3048 RMK A01 T10581136  RH  054%=      5-min Rain = 0
KOD1 130539Z 35005KT M06/M14 A3048 RMK A01 T10571136  RH  054%=      5-min Rain = 0
KOD1 130540Z 35005KT M06/M14 A3048 RMK A01 T10561136  RH  054%=      5-min Rain = 0
KOD1 130541Z 35004KT M06/M14 A3048 RMK A01 T10561135  RH  054%=      5-min Rain = 0
KOD1 130542Z 35004KT M06/M14 A3048 RMK A01 T10551135  RH  054%=      5-min Rain = 0
KOD1 130543Z 35004KT M05/M13 A3048 RMK A01 T10541134  RH  053%=      5-min Rain = 0
KOD1 130544Z 35005KT M05/M13 A3048 RMK A01 T10541134  RH  053%=      5-min Rain = 0
KOD1 130545Z 35005KT M05/M13 A3048 RMK A01 T10531133  RH  053%=      5-min Rain = 0
KOD1 130546Z 35005KT M05/M13 A3048 RMK A01 T10511133  RH  053%=      5-min Rain = 0
KOD1 130547Z 35004KT M05/M13 A3048 RMK A01 T10501133  RH  052%=      5-min Rain = 0
KOD1 130548Z 35005KT M05/M13 A3048 RMK A01 T10491133  RH  052%=      5-min Rain = 0
KOD1 130549Z 35005KT M05/M13 A3048 RMK A01 T10481133  RH  051%=      5-min Rain = 0
KOD1 130550Z 35005KT M05/M13 A3048 RMK A01 T10461133  RH  051%=      5-min Rain = 0
KOD1 130551Z 35005KT M05/M13 A3048 RMK A01 T10451133  RH  050%=      5-min Rain = 0
KOD1 130552Z 35005KT M04/M13 A3048 RMK A01 T10441133  RH  050%=      5-min Rain = 0
KOD1 130553Z 35006KT M04/M13 A3049 RMK A01 T10431133  RH  049%=      5-min Rain = 0
KOD1 130554Z 36005KT M04/M13 A3049 RMK A01 T10411134  RH  049%=      5-min Rain = 0
KOD1 130555Z 36005KT M04/M13 A3049 RMK A01 T10401133  RH  048%=      5-min Rain = 0
KOD1 130556Z 00006KT M04/M13 A3049 RMK A01 T10391134  RH  048%=      5-min Rain = 0
KOD1 130557Z 00006KT M04/M13 A3049 RMK A01 T10381134  RH  047%=      5-min Rain = 0
KOD1 130558Z 36006KT M04/M13 A3049 RMK A01 T10371134  RH  047%=      5-min Rain = 0
KOD1 130559Z 36006KT M04/M14 A3049 RMK A01 T10361135  RH  046%=      5-min Rain = 0

Page generated in 0.1823 seconds.